<?xml version="1.0" encoding="UTF-8" standalone="no" ?><gpx xmlns="http://www.topografix.com/GPX/1/1" xmlns:gpxx="http://www.garmin.com/xmlschemas/GpxExtensions/v3" xmlns:wptx1="http://www.garmin.com/xmlschemas/WaypointExtension/v1" xmlns:gpxtpx="http://www.garmin.com/xmlschemas/TrackPointExtension/v1" creator="GuideVTT.com" version="1.1" xmlns:xsi="http://www.w3.org/2001/XMLSchema-instance" xsi:schemaLocation="http://www.topografix.com/GPX/1/1 http://www.topografix.com/GPX/1/1/gpx.xsd http://www.garmin.com/xmlschemas/GpxExtensions/v3 http://www8.garmin.com/xmlschemas/GpxExtensionsv3.xsd http://www.garmin.com/xmlschemas/WaypointExtension/v1 http://www8.garmin.com/xmlschemas/WaypointExtensionv1.xsd http://www.garmin.com/xmlschemas/TrackPointExtension/v1 http://www.garmin.com/xmlschemas/TrackPointExtensionv1.xsd">
<metadata><link href="http://www.garmin.com"><text>Garmin International</text></link><time>2013-06-22T15:13:50Z</time></metadata>
<trk><name>rp2017_08.gpx</name><extensions><gpxx:TrackExtension><gpxx:DisplayColor>Cyan</gpxx:DisplayColor></gpxx:TrackExtension></extensions><trkseg>
<trkpt lat="46.25878" lon="7.278"><ele>1583.4</ele><time>2017-05-28T09:26:34Z</time></trkpt>
<trkpt lat="46.25879" lon="7.278"><ele>1580.6</ele><time>2017-05-28T09:26:39Z</time></trkpt>
<trkpt lat="46.25878" lon="7.27802"><ele>1585.6</ele><time>2017-05-28T09:26:52Z</time></trkpt>
<trkpt lat="46.25879" lon="7.27803"><ele>1596.4</ele><time>2017-05-28T09:26:53Z</time></trkpt>
<trkpt lat="46.25877" lon="7.27802"><ele>1580.2</ele><time>2017-05-28T09:26:56Z</time></trkpt>
<trkpt lat="46.25878" lon="7.27799"><ele>1581.4</ele><time>2017-05-28T09:27:03Z</time></trkpt>
<trkpt lat="46.25877" lon="7.27797"><ele>1577.2</ele><time>2017-05-28T09:27:08Z</time></trkpt>
<trkpt lat="46.25878" lon="7.27797"><ele>1578</ele><time>2017-05-28T09:27:10Z</time></trkpt>
<trkpt lat="46.25877" lon="7.27797"><ele>1578.8</ele><time>2017-05-28T09:27:12Z</time></trkpt>
<trkpt lat="46.25878" lon="7.27799"><ele>1580</ele><time>2017-05-28T09:27:17Z</time></trkpt>
<trkpt lat="46.25878" lon="7.278"><ele>1581.8</ele><time>2017-05-28T09:27:27Z</time></trkpt>
<trkpt lat="46.25878" lon="7.278"><ele>1582</ele><time>2017-05-28T09:27:29Z</time></trkpt>
<trkpt lat="46.25879" lon="7.278"><ele>1582.2</ele><time>2017-05-28T09:27:32Z</time></trkpt>
<trkpt lat="46.2588" lon="7.27809"><ele>1582.4</ele><time>2017-05-28T09:27:47Z</time></trkpt>
<trkpt lat="46.25887" lon="7.27816"><ele>1582.4</ele><time>2017-05-28T09:27:56Z</time></trkpt>
<trkpt lat="46.25891" lon="7.27817"><ele>1582.4</ele><time>2017-05-28T09:27:59Z</time></trkpt>
<trkpt lat="46.25893" lon="7.2782"><ele>1582.4</ele><time>2017-05-28T09:28:03Z</time></trkpt>
<trkpt lat="46.25894" lon="7.27823"><ele>1582.4</ele><time>2017-05-28T09:28:05Z</time></trkpt>
<trkpt lat="46.25911" lon="7.27838"><ele>1581.8</ele><time>2017-05-28T09:28:35Z</time></trkpt>
<trkpt lat="46.25915" lon="7.27843"><ele>1581.6</ele><time>2017-05-28T09:28:43Z</time></trkpt>
<trkpt lat="46.25919" lon="7.27847"><ele>1581.6</ele><time>2017-05-28T09:28:50Z</time></trkpt>
<trkpt lat="46.25923" lon="7.27849"><ele>1581.4</ele><time>2017-05-28T09:28:55Z</time></trkpt>
<trkpt lat="46.25929" lon="7.2785"><ele>1581.4</ele><time>2017-05-28T09:29:03Z</time></trkpt>
<trkpt lat="46.25945" lon="7.27854"><ele>1581.2</ele><time>2017-05-28T09:29:19Z</time></trkpt>
<trkpt lat="46.25964" lon="7.27854"><ele>1580.6</ele><time>2017-05-28T09:29:35Z</time></trkpt>
<trkpt lat="46.25979" lon="7.27851"><ele>1582.2</ele><time>2017-05-28T09:29:53Z</time></trkpt>
<trkpt lat="46.25985" lon="7.27851"><ele>1582.6</ele><time>2017-05-28T09:29:59Z</time></trkpt>
<trkpt lat="46.25986" lon="7.27851"><ele>1582.8</ele><time>2017-05-28T09:30:00Z</time></trkpt>
<trkpt lat="46.25989" lon="7.2785"><ele>1583.6</ele><time>2017-05-28T09:30:04Z</time></trkpt>
<trkpt lat="46.25993" lon="7.27849"><ele>1584</ele><time>2017-05-28T09:30:08Z</time></trkpt>
<trkpt lat="46.25995" lon="7.27849"><ele>1584.8</ele><time>2017-05-28T09:30:11Z</time></trkpt>
<trkpt lat="46.26012" lon="7.27848"><ele>1589.4</ele><time>2017-05-28T09:30:31Z</time></trkpt>
<trkpt lat="46.26013" lon="7.27849"><ele>1589.6</ele><time>2017-05-28T09:30:32Z</time></trkpt>
<trkpt lat="46.26024" lon="7.27864"><ele>1594.4</ele><time>2017-05-28T09:30:52Z</time></trkpt>
<trkpt lat="46.26036" lon="7.27877"><ele>1598.4</ele><time>2017-05-28T09:31:10Z</time></trkpt>
<trkpt lat="46.26039" lon="7.27882"><ele>1600.2</ele><time>2017-05-28T09:31:16Z</time></trkpt>
<trkpt lat="46.26049" lon="7.27889"><ele>1603</ele><time>2017-05-28T09:31:28Z</time></trkpt>
<trkpt lat="46.26055" lon="7.27894"><ele>1604.8</ele><time>2017-05-28T09:31:35Z</time></trkpt>
<trkpt lat="46.26057" lon="7.27897"><ele>1605.6</ele><time>2017-05-28T09:31:39Z</time></trkpt>
<trkpt lat="46.26059" lon="7.27898"><ele>1606</ele><time>2017-05-28T09:31:41Z</time></trkpt>
<trkpt lat="46.26063" lon="7.27902"><ele>1607.2</ele><time>2017-05-28T09:31:46Z</time></trkpt>
<trkpt lat="46.26065" lon="7.27903"><ele>1607.6</ele><time>2017-05-28T09:31:48Z</time></trkpt>
<trkpt lat="46.2608" lon="7.27916"><ele>1613</ele><time>2017-05-28T09:32:09Z</time></trkpt>
<trkpt lat="46.26094" lon="7.27925"><ele>1617.2</ele><time>2017-05-28T09:32:29Z</time></trkpt>
<trkpt lat="46.26101" lon="7.27933"><ele>1619</ele><time>2017-05-28T09:32:40Z</time></trkpt>
<trkpt lat="46.26116" lon="7.27949"><ele>1622.6</ele><time>2017-05-28T09:33:00Z</time></trkpt>
<trkpt lat="46.26125" lon="7.27971"><ele>1626.8</ele><time>2017-05-28T09:33:20Z</time></trkpt>
<trkpt lat="46.26131" lon="7.27976"><ele>1628.6</ele><time>2017-05-28T09:33:30Z</time></trkpt>
<trkpt lat="46.26144" lon="7.2798"><ele>1632.2</ele><time>2017-05-28T09:33:47Z</time></trkpt>
<trkpt lat="46.2615" lon="7.27982"><ele>1633.8</ele><time>2017-05-28T09:33:56Z</time></trkpt>
<trkpt lat="46.26156" lon="7.27985"><ele>1635</ele><time>2017-05-28T09:34:05Z</time></trkpt>
<trkpt lat="46.2616" lon="7.27987"><ele>1635.4</ele><time>2017-05-28T09:34:11Z</time></trkpt>
<trkpt lat="46.2617" lon="7.27993"><ele>1638</ele><time>2017-05-28T09:34:27Z</time></trkpt>
<trkpt lat="46.26184" lon="7.27996"><ele>1642.4</ele><time>2017-05-28T09:34:47Z</time></trkpt>
<trkpt lat="46.26201" lon="7.28001"><ele>1647.8</ele><time>2017-05-28T09:35:10Z</time></trkpt>
<trkpt lat="46.26205" lon="7.28002"><ele>1649</ele><time>2017-05-28T09:35:15Z</time></trkpt>
<trkpt lat="46.26209" lon="7.28003"><ele>1649.4</ele><time>2017-05-28T09:35:18Z</time></trkpt>
<trkpt lat="46.26215" lon="7.28006"><ele>1650.4</ele><time>2017-05-28T09:35:25Z</time></trkpt>
<trkpt lat="46.26231" lon="7.28018"><ele>1653.8</ele><time>2017-05-28T09:35:45Z</time></trkpt>
<trkpt lat="46.26237" lon="7.28023"><ele>1655</ele><time>2017-05-28T09:35:53Z</time></trkpt>
<trkpt lat="46.26253" lon="7.28033"><ele>1658</ele><time>2017-05-28T09:36:13Z</time></trkpt>
<trkpt lat="46.26257" lon="7.28035"><ele>1658.4</ele><time>2017-05-28T09:36:17Z</time></trkpt>
<trkpt lat="46.26275" lon="7.28037"><ele>1661.2</ele><time>2017-05-28T09:36:36Z</time></trkpt>
<trkpt lat="46.26296" lon="7.28033"><ele>1665</ele><time>2017-05-28T09:37:01Z</time></trkpt>
<trkpt lat="46.263" lon="7.28033"><ele>1665.8</ele><time>2017-05-28T09:37:04Z</time></trkpt>
<trkpt lat="46.26309" lon="7.28039"><ele>1667.4</ele><time>2017-05-28T09:37:18Z</time></trkpt>
<trkpt lat="46.26325" lon="7.28051"><ele>1669.4</ele><time>2017-05-28T09:37:37Z</time></trkpt>
<trkpt lat="46.26333" lon="7.2806"><ele>1671</ele><time>2017-05-28T09:37:50Z</time></trkpt>
<trkpt lat="46.26345" lon="7.28071"><ele>1672.8</ele><time>2017-05-28T09:38:06Z</time></trkpt>
<trkpt lat="46.26349" lon="7.28075"><ele>1673.4</ele><time>2017-05-28T09:38:11Z</time></trkpt>
<trkpt lat="46.26368" lon="7.28081"><ele>1676.2</ele><time>2017-05-28T09:38:31Z</time></trkpt>
<trkpt lat="46.2637" lon="7.28083"><ele>1676.6</ele><time>2017-05-28T09:38:34Z</time></trkpt>
<trkpt lat="46.26373" lon="7.28087"><ele>1677</ele><time>2017-05-28T09:38:38Z</time></trkpt>
<trkpt lat="46.26376" lon="7.2809"><ele>1677.6</ele><time>2017-05-28T09:38:41Z</time></trkpt>
<trkpt lat="46.2638" lon="7.28095"><ele>1678.6</ele><time>2017-05-28T09:38:48Z</time></trkpt>
<trkpt lat="46.26397" lon="7.28107"><ele>1681.4</ele><time>2017-05-28T09:39:06Z</time></trkpt>
<trkpt lat="46.26397" lon="7.28108"><ele>1681.6</ele><time>2017-05-28T09:39:07Z</time></trkpt>
<trkpt lat="46.26402" lon="7.28112"><ele>1682.4</ele><time>2017-05-28T09:39:11Z</time></trkpt>
<trkpt lat="46.26417" lon="7.28128"><ele>1685.6</ele><time>2017-05-28T09:39:24Z</time></trkpt>
<trkpt lat="46.26426" lon="7.28132"><ele>1687.2</ele><time>2017-05-28T09:39:34Z</time></trkpt>
<trkpt lat="46.26429" lon="7.28133"><ele>1687.6</ele><time>2017-05-28T09:39:38Z</time></trkpt>
<trkpt lat="46.26441" lon="7.28138"><ele>1690.2</ele><time>2017-05-28T09:39:53Z</time></trkpt>
<trkpt lat="46.26457" lon="7.28151"><ele>1693.4</ele><time>2017-05-28T09:40:16Z</time></trkpt>
<trkpt lat="46.2646" lon="7.28153"><ele>1694.2</ele><time>2017-05-28T09:40:21Z</time></trkpt>
<trkpt lat="46.26478" lon="7.28153"><ele>1696.6</ele><time>2017-05-28T09:40:43Z</time></trkpt>
<trkpt lat="46.26487" lon="7.28154"><ele>1697.2</ele><time>2017-05-28T09:40:52Z</time></trkpt>
<trkpt lat="46.26493" lon="7.28152"><ele>1698</ele><time>2017-05-28T09:40:57Z</time></trkpt>
<trkpt lat="46.26497" lon="7.28154"><ele>1698.8</ele><time>2017-05-28T09:41:01Z</time></trkpt>
<trkpt lat="46.265" lon="7.28156"><ele>1699.4</ele><time>2017-05-28T09:41:04Z</time></trkpt>
<trkpt lat="46.26502" lon="7.28157"><ele>1699.6</ele><time>2017-05-28T09:41:06Z</time></trkpt>
<trkpt lat="46.26504" lon="7.28159"><ele>1699.6</ele><time>2017-05-28T09:41:09Z</time></trkpt>
<trkpt lat="46.26507" lon="7.2816"><ele>1699.6</ele><time>2017-05-28T09:41:12Z</time></trkpt>
<trkpt lat="46.26516" lon="7.28168"><ele>1699.8</ele><time>2017-05-28T09:41:26Z</time></trkpt>
<trkpt lat="46.2652" lon="7.2817"><ele>1699.8</ele><time>2017-05-28T09:41:30Z</time></trkpt>
<trkpt lat="46.26525" lon="7.28172"><ele>1700.2</ele><time>2017-05-28T09:41:36Z</time></trkpt>
<trkpt lat="46.26527" lon="7.28173"><ele>1700.4</ele><time>2017-05-28T09:41:38Z</time></trkpt>
<trkpt lat="46.2653" lon="7.28176"><ele>1700.8</ele><time>2017-05-28T09:41:42Z</time></trkpt>
<trkpt lat="46.26534" lon="7.28179"><ele>1701.6</ele><time>2017-05-28T09:41:47Z</time></trkpt>
<trkpt lat="46.26544" lon="7.28185"><ele>1703.2</ele><time>2017-05-28T09:41:59Z</time></trkpt>
<trkpt lat="46.26559" lon="7.28196"><ele>1705.8</ele><time>2017-05-28T09:42:19Z</time></trkpt>
<trkpt lat="46.2656" lon="7.28197"><ele>1705.8</ele><time>2017-05-28T09:42:20Z</time></trkpt>
<trkpt lat="46.26566" lon="7.28205"><ele>1707.4</ele><time>2017-05-28T09:42:29Z</time></trkpt>
<trkpt lat="46.26571" lon="7.2821"><ele>1709</ele><time>2017-05-28T09:42:36Z</time></trkpt>
<trkpt lat="46.26576" lon="7.28214"><ele>1709.8</ele><time>2017-05-28T09:42:41Z</time></trkpt>
<trkpt lat="46.26578" lon="7.28216"><ele>1710.2</ele><time>2017-05-28T09:42:43Z</time></trkpt>
<trkpt lat="46.26587" lon="7.28222"><ele>1711.8</ele><time>2017-05-28T09:42:52Z</time></trkpt>
<trkpt lat="46.26591" lon="7.28225"><ele>1712.6</ele><time>2017-05-28T09:42:56Z</time></trkpt>
<trkpt lat="46.26601" lon="7.28236"><ele>1714.4</ele><time>2017-05-28T09:43:08Z</time></trkpt>
<trkpt lat="46.26607" lon="7.28244"><ele>1715.4</ele><time>2017-05-28T09:43:16Z</time></trkpt>
<trkpt lat="46.26616" lon="7.28255"><ele>1717</ele><time>2017-05-28T09:43:27Z</time></trkpt>
<trkpt lat="46.26632" lon="7.28275"><ele>1719.6</ele><time>2017-05-28T09:43:46Z</time></trkpt>
<trkpt lat="46.2664" lon="7.28284"><ele>1721.8</ele><time>2017-05-28T09:43:56Z</time></trkpt>
<trkpt lat="46.26656" lon="7.28298"><ele>1726</ele><time>2017-05-28T09:44:15Z</time></trkpt>
<trkpt lat="46.26667" lon="7.28305"><ele>1729</ele><time>2017-05-28T09:44:29Z</time></trkpt>
<trkpt lat="46.26672" lon="7.28309"><ele>1730.8</ele><time>2017-05-28T09:44:37Z</time></trkpt>
<trkpt lat="46.26677" lon="7.28313"><ele>1732.2</ele><time>2017-05-28T09:44:44Z</time></trkpt>
<trkpt lat="46.26694" lon="7.28319"><ele>1736.4</ele><time>2017-05-28T09:45:06Z</time></trkpt>
<trkpt lat="46.26702" lon="7.2832"><ele>1738.6</ele><time>2017-05-28T09:45:17Z</time></trkpt>
<trkpt lat="46.26708" lon="7.28326"><ele>1740.4</ele><time>2017-05-28T09:45:26Z</time></trkpt>
<trkpt lat="46.2671" lon="7.28329"><ele>1741.2</ele><time>2017-05-28T09:45:31Z</time></trkpt>
<trkpt lat="46.26717" lon="7.28335"><ele>1742.8</ele><time>2017-05-28T09:45:39Z</time></trkpt>
<trkpt lat="46.26723" lon="7.28342"><ele>1744.8</ele><time>2017-05-28T09:45:49Z</time></trkpt>
<trkpt lat="46.26738" lon="7.28355"><ele>1749</ele><time>2017-05-28T09:46:10Z</time></trkpt>
<trkpt lat="46.26753" lon="7.28362"><ele>1753</ele><time>2017-05-28T09:46:28Z</time></trkpt>
<trkpt lat="46.26771" lon="7.28372"><ele>1757.2</ele><time>2017-05-28T09:46:48Z</time></trkpt>
<trkpt lat="46.26782" lon="7.28384"><ele>1760</ele><time>2017-05-28T09:47:00Z</time></trkpt>
<trkpt lat="46.26786" lon="7.28387"><ele>1761.2</ele><time>2017-05-28T09:47:05Z</time></trkpt>
<trkpt lat="46.26789" lon="7.28391"><ele>1762.2</ele><time>2017-05-28T09:47:11Z</time></trkpt>
<trkpt lat="46.26808" lon="7.28416"><ele>1766.2</ele><time>2017-05-28T09:47:36Z</time></trkpt>
<trkpt lat="46.26822" lon="7.28434"><ele>1770</ele><time>2017-05-28T09:47:57Z</time></trkpt>
<trkpt lat="46.26837" lon="7.2845"><ele>1773.8</ele><time>2017-05-28T09:48:19Z</time></trkpt>
<trkpt lat="46.26844" lon="7.28456"><ele>1775.2</ele><time>2017-05-28T09:48:26Z</time></trkpt>
<trkpt lat="46.26848" lon="7.28452"><ele>1777.4</ele><time>2017-05-28T09:48:37Z</time></trkpt>
<trkpt lat="46.26848" lon="7.28455"><ele>1777</ele><time>2017-05-28T09:49:13Z</time></trkpt>
<trkpt lat="46.26849" lon="7.28453"><ele>1776.8</ele><time>2017-05-28T09:49:22Z</time></trkpt>
<trkpt lat="46.26848" lon="7.28454"><ele>1777</ele><time>2017-05-28T09:49:24Z</time></trkpt>
<trkpt lat="46.26848" lon="7.28454"><ele>1776.4</ele><time>2017-05-28T09:49:38Z</time></trkpt>
<trkpt lat="46.26842" lon="7.2845"><ele>1776.2</ele><time>2017-05-28T09:49:49Z</time></trkpt>
<trkpt lat="46.26836" lon="7.28428"><ele>1775.6</ele><time>2017-05-28T09:50:14Z</time></trkpt>
<trkpt lat="46.26833" lon="7.2842"><ele>1776.2</ele><time>2017-05-28T09:50:27Z</time></trkpt>
<trkpt lat="46.26832" lon="7.2842"><ele>1776.4</ele><time>2017-05-28T09:50:30Z</time></trkpt>
<trkpt lat="46.26832" lon="7.2842"><ele>1776.4</ele><time>2017-05-28T09:50:31Z</time></trkpt>
<trkpt lat="46.26832" lon="7.28419"><ele>1776.6</ele><time>2017-05-28T09:50:35Z</time></trkpt>
<trkpt lat="46.26832" lon="7.28418"><ele>1776.8</ele><time>2017-05-28T09:50:48Z</time></trkpt>
<trkpt lat="46.26832" lon="7.28432"><ele>1776.4</ele><time>2017-05-28T09:51:03Z</time></trkpt>
<trkpt lat="46.26833" lon="7.28433"><ele>1776.2</ele><time>2017-05-28T09:51:04Z</time></trkpt>
<trkpt lat="46.26834" lon="7.28435"><ele>1776</ele><time>2017-05-28T09:51:05Z</time></trkpt>
<trkpt lat="46.26838" lon="7.28442"><ele>1775.8</ele><time>2017-05-28T09:51:09Z</time></trkpt>
<trkpt lat="46.26842" lon="7.28451"><ele>1775.8</ele><time>2017-05-28T09:51:16Z</time></trkpt>
<trkpt lat="46.26848" lon="7.28455"><ele>1775.2</ele><time>2017-05-28T09:51:28Z</time></trkpt>
<trkpt lat="46.26846" lon="7.28458"><ele>1774.6</ele><time>2017-05-28T09:51:37Z</time></trkpt>
<trkpt lat="46.26845" lon="7.28459"><ele>1774.2</ele><time>2017-05-28T09:51:43Z</time></trkpt>
<trkpt lat="46.26844" lon="7.28453"><ele>1772.2</ele><time>2017-05-28T09:52:08Z</time></trkpt>
<trkpt lat="46.26847" lon="7.28451"><ele>1771.6</ele><time>2017-05-28T09:52:32Z</time></trkpt>
<trkpt lat="46.26847" lon="7.28451"><ele>1771.4</ele><time>2017-05-28T09:52:33Z</time></trkpt>
<trkpt lat="46.26858" lon="7.28471"><ele>1770.8</ele><time>2017-05-28T09:52:59Z</time></trkpt>
<trkpt lat="46.26864" lon="7.28479"><ele>1771</ele><time>2017-05-28T09:53:06Z</time></trkpt>
<trkpt lat="46.26869" lon="7.28486"><ele>1771.8</ele><time>2017-05-28T09:53:13Z</time></trkpt>
<trkpt lat="46.26874" lon="7.28493"><ele>1772</ele><time>2017-05-28T09:53:20Z</time></trkpt>
<trkpt lat="46.26875" lon="7.28493"><ele>1771.6</ele><time>2017-05-28T09:53:28Z</time></trkpt>
<trkpt lat="46.26878" lon="7.28491"><ele>1769.6</ele><time>2017-05-28T09:54:31Z</time></trkpt>
<trkpt lat="46.26874" lon="7.28495"><ele>1769.4</ele><time>2017-05-28T09:55:01Z</time></trkpt>
<trkpt lat="46.26877" lon="7.28495"><ele>1769.6</ele><time>2017-05-28T09:55:14Z</time></trkpt>
<trkpt lat="46.26877" lon="7.28491"><ele>1769.6</ele><time>2017-05-28T09:55:27Z</time></trkpt>
<trkpt lat="46.26875" lon="7.28492"><ele>1769.8</ele><time>2017-05-28T09:55:39Z</time></trkpt>
<trkpt lat="46.26876" lon="7.28492"><ele>1769.6</ele><time>2017-05-28T09:56:43Z</time></trkpt>
<trkpt lat="46.26875" lon="7.28494"><ele>1769.8</ele><time>2017-05-28T09:57:03Z</time></trkpt>
<trkpt lat="46.26878" lon="7.28488"><ele>1768.6</ele><time>2017-05-28T09:57:31Z</time></trkpt>
<trkpt lat="46.26878" lon="7.28487"><ele>1768.6</ele><time>2017-05-28T09:57:32Z</time></trkpt>
<trkpt lat="46.26879" lon="7.28487"><ele>1768.6</ele><time>2017-05-28T09:57:33Z</time></trkpt>
<trkpt lat="46.2688" lon="7.28489"><ele>1768.8</ele><time>2017-05-28T09:57:40Z</time></trkpt>
<trkpt lat="46.26878" lon="7.28492"><ele>1768.8</ele><time>2017-05-28T09:57:50Z</time></trkpt>
<trkpt lat="46.26877" lon="7.28492"><ele>1769.2</ele><time>2017-05-28T09:57:56Z</time></trkpt>
<trkpt lat="46.26877" lon="7.28494"><ele>1768.2</ele><time>2017-05-28T09:58:03Z</time></trkpt>
<trkpt lat="46.26876" lon="7.28496"><ele>1766.8</ele><time>2017-05-28T09:58:26Z</time></trkpt>
<trkpt lat="46.26875" lon="7.28496"><ele>1768.2</ele><time>2017-05-28T09:58:43Z</time></trkpt>
<trkpt lat="46.26876" lon="7.28494"><ele>1768.2</ele><time>2017-05-28T09:58:48Z</time></trkpt>
<trkpt lat="46.26876" lon="7.28495"><ele>1768.6</ele><time>2017-05-28T09:58:54Z</time></trkpt>
<trkpt lat="46.26887" lon="7.28502"><ele>1769.2</ele><time>2017-05-28T09:59:13Z</time></trkpt>
<trkpt lat="46.26893" lon="7.28509"><ele>1769.6</ele><time>2017-05-28T09:59:21Z</time></trkpt>
<trkpt lat="46.26907" lon="7.28518"><ele>1771</ele><time>2017-05-28T09:59:36Z</time></trkpt>
<trkpt lat="46.26922" lon="7.28531"><ele>1771.4</ele><time>2017-05-28T09:59:54Z</time></trkpt>
<trkpt lat="46.2693" lon="7.28541"><ele>1772</ele><time>2017-05-28T10:00:03Z</time></trkpt>
<trkpt lat="46.26931" lon="7.28542"><ele>1772</ele><time>2017-05-28T10:00:04Z</time></trkpt>
<trkpt lat="46.26938" lon="7.2855"><ele>1772</ele><time>2017-05-28T10:00:12Z</time></trkpt>
<trkpt lat="46.26947" lon="7.28558"><ele>1773.2</ele><time>2017-05-28T10:00:21Z</time></trkpt>
<trkpt lat="46.26954" lon="7.28563"><ele>1773.8</ele><time>2017-05-28T10:00:27Z</time></trkpt>
<trkpt lat="46.26959" lon="7.28566"><ele>1774</ele><time>2017-05-28T10:00:32Z</time></trkpt>
<trkpt lat="46.2697" lon="7.28574"><ele>1774.8</ele><time>2017-05-28T10:00:41Z</time></trkpt>
<trkpt lat="46.26976" lon="7.28578"><ele>1775.2</ele><time>2017-05-28T10:00:46Z</time></trkpt>
<trkpt lat="46.2698" lon="7.28582"><ele>1775.4</ele><time>2017-05-28T10:00:50Z</time></trkpt>
<trkpt lat="46.26988" lon="7.2859"><ele>1776.4</ele><time>2017-05-28T10:00:57Z</time></trkpt>
<trkpt lat="46.2699" lon="7.28592"><ele>1776.4</ele><time>2017-05-28T10:00:59Z</time></trkpt>
<trkpt lat="46.26992" lon="7.28593"><ele>1776.8</ele><time>2017-05-28T10:01:00Z</time></trkpt>
<trkpt lat="46.26993" lon="7.28594"><ele>1777</ele><time>2017-05-28T10:01:01Z</time></trkpt>
<trkpt lat="46.26994" lon="7.28596"><ele>1777.2</ele><time>2017-05-28T10:01:03Z</time></trkpt>
<trkpt lat="46.27009" lon="7.28609"><ele>1778.6</ele><time>2017-05-28T10:01:16Z</time></trkpt>
<trkpt lat="46.27027" lon="7.28631"><ele>1779.8</ele><time>2017-05-28T10:01:35Z</time></trkpt>
<trkpt lat="46.2703" lon="7.28634"><ele>1779.8</ele><time>2017-05-28T10:01:38Z</time></trkpt>
<trkpt lat="46.27039" lon="7.28642"><ele>1780.4</ele><time>2017-05-28T10:01:46Z</time></trkpt>
<trkpt lat="46.27047" lon="7.28647"><ele>1781.2</ele><time>2017-05-28T10:01:55Z</time></trkpt>
<trkpt lat="46.27048" lon="7.28648"><ele>1781.2</ele><time>2017-05-28T10:01:56Z</time></trkpt>
<trkpt lat="46.27052" lon="7.28652"><ele>1781.4</ele><time>2017-05-28T10:02:01Z</time></trkpt>
<trkpt lat="46.27054" lon="7.28653"><ele>1781.6</ele><time>2017-05-28T10:02:03Z</time></trkpt>
<trkpt lat="46.27057" lon="7.28655"><ele>1782.2</ele><time>2017-05-28T10:02:06Z</time></trkpt>
<trkpt lat="46.27063" lon="7.28658"><ele>1782.6</ele><time>2017-05-28T10:02:11Z</time></trkpt>
<trkpt lat="46.27078" lon="7.28667"><ele>1784.2</ele><time>2017-05-28T10:02:24Z</time></trkpt>
<trkpt lat="46.27087" lon="7.28672"><ele>1785.8</ele><time>2017-05-28T10:02:31Z</time></trkpt>
<trkpt lat="46.27093" lon="7.28674"><ele>1787.6</ele><time>2017-05-28T10:02:37Z</time></trkpt>
<trkpt lat="46.27109" lon="7.28686"><ele>1792</ele><time>2017-05-28T10:02:56Z</time></trkpt>
<trkpt lat="46.2712" lon="7.28693"><ele>1795.8</ele><time>2017-05-28T10:03:10Z</time></trkpt>
<trkpt lat="46.27124" lon="7.28696"><ele>1796.2</ele><time>2017-05-28T10:03:14Z</time></trkpt>
<trkpt lat="46.27132" lon="7.28701"><ele>1797.4</ele><time>2017-05-28T10:03:21Z</time></trkpt>
<trkpt lat="46.27133" lon="7.28703"><ele>1797.6</ele><time>2017-05-28T10:03:22Z</time></trkpt>
<trkpt lat="46.27146" lon="7.28711"><ele>1800</ele><time>2017-05-28T10:03:35Z</time></trkpt>
<trkpt lat="46.27147" lon="7.28711"><ele>1800.2</ele><time>2017-05-28T10:03:36Z</time></trkpt>
<trkpt lat="46.27154" lon="7.28711"><ele>1801.8</ele><time>2017-05-28T10:03:44Z</time></trkpt>
<trkpt lat="46.27168" lon="7.28712"><ele>1805.8</ele><time>2017-05-28T10:03:58Z</time></trkpt>
<trkpt lat="46.27185" lon="7.28719"><ele>1812.4</ele><time>2017-05-28T10:04:20Z</time></trkpt>
<trkpt lat="46.27198" lon="7.28732"><ele>1814.2</ele><time>2017-05-28T10:04:36Z</time></trkpt>
<trkpt lat="46.27205" lon="7.28737"><ele>1815.8</ele><time>2017-05-28T10:04:44Z</time></trkpt>
<trkpt lat="46.27217" lon="7.28735"><ele>1817.8</ele><time>2017-05-28T10:04:55Z</time></trkpt>
<trkpt lat="46.2723" lon="7.28751"><ele>1821.4</ele><time>2017-05-28T10:05:10Z</time></trkpt>
<trkpt lat="46.27235" lon="7.28756"><ele>1822.6</ele><time>2017-05-28T10:05:16Z</time></trkpt>
<trkpt lat="46.27239" lon="7.2876"><ele>1823.6</ele><time>2017-05-28T10:05:21Z</time></trkpt>
<trkpt lat="46.27243" lon="7.28763"><ele>1824.2</ele><time>2017-05-28T10:05:25Z</time></trkpt>
<trkpt lat="46.27248" lon="7.28768"><ele>1825.6</ele><time>2017-05-28T10:05:31Z</time></trkpt>
<trkpt lat="46.2725" lon="7.28769"><ele>1825.8</ele><time>2017-05-28T10:05:33Z</time></trkpt>
<trkpt lat="46.27255" lon="7.28772"><ele>1827.2</ele><time>2017-05-28T10:05:39Z</time></trkpt>
<trkpt lat="46.27261" lon="7.28773"><ele>1828.4</ele><time>2017-05-28T10:05:46Z</time></trkpt>
<trkpt lat="46.27276" lon="7.28778"><ele>1832.2</ele><time>2017-05-28T10:06:01Z</time></trkpt>
<trkpt lat="46.27293" lon="7.28786"><ele>1835.8</ele><time>2017-05-28T10:06:20Z</time></trkpt>
<trkpt lat="46.27308" lon="7.28802"><ele>1839</ele><time>2017-05-28T10:06:37Z</time></trkpt>
<trkpt lat="46.27311" lon="7.28807"><ele>1839.8</ele><time>2017-05-28T10:06:42Z</time></trkpt>
<trkpt lat="46.27314" lon="7.28809"><ele>1840.2</ele><time>2017-05-28T10:06:46Z</time></trkpt>
<trkpt lat="46.2732" lon="7.28814"><ele>1841</ele><time>2017-05-28T10:06:53Z</time></trkpt>
<trkpt lat="46.27325" lon="7.28818"><ele>1841.8</ele><time>2017-05-28T10:07:00Z</time></trkpt>
<trkpt lat="46.27328" lon="7.28823"><ele>1842.4</ele><time>2017-05-28T10:07:04Z</time></trkpt>
<trkpt lat="46.27329" lon="7.28823"><ele>1842.4</ele><time>2017-05-28T10:07:05Z</time></trkpt>
<trkpt lat="46.27335" lon="7.28826"><ele>1843</ele><time>2017-05-28T10:07:13Z</time></trkpt>
<trkpt lat="46.27337" lon="7.28826"><ele>1843</ele><time>2017-05-28T10:07:15Z</time></trkpt>
<trkpt lat="46.27339" lon="7.28827"><ele>1843.2</ele><time>2017-05-28T10:07:18Z</time></trkpt>
<trkpt lat="46.27337" lon="7.28828"><ele>1843.2</ele><time>2017-05-28T10:08:18Z</time></trkpt>
<trkpt lat="46.27339" lon="7.28826"><ele>1844.2</ele><time>2017-05-28T10:08:25Z</time></trkpt>
<trkpt lat="46.2734" lon="7.28825"><ele>1843.6</ele><time>2017-05-28T10:08:31Z</time></trkpt>
<trkpt lat="46.2734" lon="7.28825"><ele>1843.6</ele><time>2017-05-28T10:08:33Z</time></trkpt>
<trkpt lat="46.27339" lon="7.28826"><ele>1843.8</ele><time>2017-05-28T10:08:35Z</time></trkpt>
<trkpt lat="46.27339" lon="7.28826"><ele>1844</ele><time>2017-05-28T10:08:37Z</time></trkpt>
<trkpt lat="46.27339" lon="7.28826"><ele>1844.2</ele><time>2017-05-28T10:08:40Z</time></trkpt>
<trkpt lat="46.27338" lon="7.28826"><ele>1844</ele><time>2017-05-28T10:08:44Z</time></trkpt>
<trkpt lat="46.2734" lon="7.28825"><ele>1845.4</ele><time>2017-05-28T10:09:15Z</time></trkpt>
<trkpt lat="46.27348" lon="7.2882"><ele>1847.2</ele><time>2017-05-28T10:09:42Z</time></trkpt>
<trkpt lat="46.2735" lon="7.28823"><ele>1847.2</ele><time>2017-05-28T10:09:44Z</time></trkpt>
<trkpt lat="46.27372" lon="7.2883"><ele>1848.6</ele><time>2017-05-28T10:10:04Z</time></trkpt>
<trkpt lat="46.27378" lon="7.2883"><ele>1849.4</ele><time>2017-05-28T10:10:09Z</time></trkpt>
<trkpt lat="46.27383" lon="7.28834"><ele>1850.2</ele><time>2017-05-28T10:10:14Z</time></trkpt>
<trkpt lat="46.27386" lon="7.28837"><ele>1850.6</ele><time>2017-05-28T10:10:17Z</time></trkpt>
<trkpt lat="46.27395" lon="7.28844"><ele>1852</ele><time>2017-05-28T10:10:27Z</time></trkpt>
<trkpt lat="46.27396" lon="7.28846"><ele>1852</ele><time>2017-05-28T10:10:29Z</time></trkpt>
<trkpt lat="46.27402" lon="7.28847"><ele>1853.2</ele><time>2017-05-28T10:10:35Z</time></trkpt>
<trkpt lat="46.27422" lon="7.28854"><ele>1855.8</ele><time>2017-05-28T10:10:55Z</time></trkpt>
<trkpt lat="46.27424" lon="7.28855"><ele>1856.2</ele><time>2017-05-28T10:10:57Z</time></trkpt>
<trkpt lat="46.2743" lon="7.2886"><ele>1856.4</ele><time>2017-05-28T10:11:02Z</time></trkpt>
<trkpt lat="46.27446" lon="7.28874"><ele>1857.8</ele><time>2017-05-28T10:11:15Z</time></trkpt>
<trkpt lat="46.27464" lon="7.28881"><ele>1861</ele><time>2017-05-28T10:11:30Z</time></trkpt>
<trkpt lat="46.27478" lon="7.28883"><ele>1863.4</ele><time>2017-05-28T10:11:42Z</time></trkpt>
<trkpt lat="46.27489" lon="7.28874"><ele>1865.2</ele><time>2017-05-28T10:11:55Z</time></trkpt>
<trkpt lat="46.27495" lon="7.28862"><ele>1866.8</ele><time>2017-05-28T10:12:04Z</time></trkpt>
<trkpt lat="46.27502" lon="7.28848"><ele>1869.4</ele><time>2017-05-28T10:12:15Z</time></trkpt>
<trkpt lat="46.27506" lon="7.28842"><ele>1870.2</ele><time>2017-05-28T10:12:20Z</time></trkpt>
<trkpt lat="46.27507" lon="7.28827"><ele>1871.8</ele><time>2017-05-28T10:12:32Z</time></trkpt>
<trkpt lat="46.27498" lon="7.28818"><ele>1873.6</ele><time>2017-05-28T10:12:44Z</time></trkpt>
<trkpt lat="46.2748" lon="7.28806"><ele>1878.2</ele><time>2017-05-28T10:13:02Z</time></trkpt>
<trkpt lat="46.27475" lon="7.28803"><ele>1880</ele><time>2017-05-28T10:13:07Z</time></trkpt>
<trkpt lat="46.27464" lon="7.28793"><ele>1882.8</ele><time>2017-05-28T10:13:19Z</time></trkpt>
<trkpt lat="46.2746" lon="7.28768"><ele>1886.2</ele><time>2017-05-28T10:13:35Z</time></trkpt>
<trkpt lat="46.27453" lon="7.28744"><ele>1890.4</ele><time>2017-05-28T10:13:52Z</time></trkpt>
<trkpt lat="46.27451" lon="7.2874"><ele>1891</ele><time>2017-05-28T10:13:55Z</time></trkpt>
<trkpt lat="46.27448" lon="7.28713"><ele>1894.4</ele><time>2017-05-28T10:14:12Z</time></trkpt>
<trkpt lat="46.27444" lon="7.28688"><ele>1897.8</ele><time>2017-05-28T10:14:29Z</time></trkpt>
<trkpt lat="46.27437" lon="7.28664"><ele>1901</ele><time>2017-05-28T10:14:45Z</time></trkpt>
<trkpt lat="46.27423" lon="7.28647"><ele>1904</ele><time>2017-05-28T10:15:04Z</time></trkpt>
<trkpt lat="46.27417" lon="7.28644"><ele>1905.4</ele><time>2017-05-28T10:15:11Z</time></trkpt>
<trkpt lat="46.27415" lon="7.28644"><ele>1906</ele><time>2017-05-28T10:15:13Z</time></trkpt>
<trkpt lat="46.27398" lon="7.28634"><ele>1908.6</ele><time>2017-05-28T10:15:31Z</time></trkpt>
<trkpt lat="46.27385" lon="7.28616"><ele>1911.6</ele><time>2017-05-28T10:15:49Z</time></trkpt>
<trkpt lat="46.27368" lon="7.28609"><ele>1914.2</ele><time>2017-05-28T10:16:07Z</time></trkpt>
<trkpt lat="46.27356" lon="7.28601"><ele>1916.6</ele><time>2017-05-28T10:16:20Z</time></trkpt>
<trkpt lat="46.27336" lon="7.28584"><ele>1920.2</ele><time>2017-05-28T10:16:42Z</time></trkpt>
<trkpt lat="46.27328" lon="7.28574"><ele>1922</ele><time>2017-05-28T10:16:52Z</time></trkpt>
<trkpt lat="46.27321" lon="7.28565"><ele>1923.4</ele><time>2017-05-28T10:17:01Z</time></trkpt>
<trkpt lat="46.27317" lon="7.28555"><ele>1924.6</ele><time>2017-05-28T10:17:08Z</time></trkpt>
<trkpt lat="46.27306" lon="7.28535"><ele>1927</ele><time>2017-05-28T10:17:25Z</time></trkpt>
<trkpt lat="46.27297" lon="7.28533"><ele>1928.2</ele><time>2017-05-28T10:17:34Z</time></trkpt>
<trkpt lat="46.27296" lon="7.28534"><ele>1928.4</ele><time>2017-05-28T10:17:36Z</time></trkpt>
<trkpt lat="46.27294" lon="7.28535"><ele>1928.4</ele><time>2017-05-28T10:17:40Z</time></trkpt>
<trkpt lat="46.27295" lon="7.28534"><ele>1928</ele><time>2017-05-28T10:17:57Z</time></trkpt>
<trkpt lat="46.27295" lon="7.28532"><ele>1927.8</ele><time>2017-05-28T10:18:19Z</time></trkpt>
<trkpt lat="46.27295" lon="7.28533"><ele>1927.8</ele><time>2017-05-28T10:18:30Z</time></trkpt>
<trkpt lat="46.27295" lon="7.28533"><ele>1927.8</ele><time>2017-05-28T10:18:32Z</time></trkpt>
<trkpt lat="46.27296" lon="7.28533"><ele>1927.8</ele><time>2017-05-28T10:18:41Z</time></trkpt>
<trkpt lat="46.27296" lon="7.28534"><ele>1927.6</ele><time>2017-05-28T10:18:53Z</time></trkpt>
<trkpt lat="46.27296" lon="7.28534"><ele>1927.6</ele><time>2017-05-28T10:18:56Z</time></trkpt>
<trkpt lat="46.27296" lon="7.28534"><ele>1927.4</ele><time>2017-05-28T10:19:01Z</time></trkpt>
<trkpt lat="46.27296" lon="7.28534"><ele>1927</ele><time>2017-05-28T10:19:20Z</time></trkpt>
<trkpt lat="46.27296" lon="7.28534"><ele>1927</ele><time>2017-05-28T10:19:31Z</time></trkpt>
<trkpt lat="46.27311" lon="7.28535"><ele>1924.4</ele><time>2017-05-28T10:19:56Z</time></trkpt>
<trkpt lat="46.27319" lon="7.28546"><ele>1922.8</ele><time>2017-05-28T10:20:00Z</time></trkpt>
<trkpt lat="46.27321" lon="7.28551"><ele>1922.6</ele><time>2017-05-28T10:20:01Z</time></trkpt>
<trkpt lat="46.27338" lon="7.28564"><ele>1921.8</ele><time>2017-05-28T10:20:07Z</time></trkpt>
<trkpt lat="46.27356" lon="7.28572"><ele>1922.4</ele><time>2017-05-28T10:20:13Z</time></trkpt>
<trkpt lat="46.27358" lon="7.28573"><ele>1922.2</ele><time>2017-05-28T10:20:14Z</time></trkpt>
<trkpt lat="46.27362" lon="7.28573"><ele>1922.6</ele><time>2017-05-28T10:20:16Z</time></trkpt>
<trkpt lat="46.2738" lon="7.28567"><ele>1923</ele><time>2017-05-28T10:20:25Z</time></trkpt>
<trkpt lat="46.27396" lon="7.2856"><ele>1920.8</ele><time>2017-05-28T10:20:29Z</time></trkpt>
<trkpt lat="46.27413" lon="7.28572"><ele>1921</ele><time>2017-05-28T10:20:34Z</time></trkpt>
<trkpt lat="46.27432" lon="7.28574"><ele>1920</ele><time>2017-05-28T10:20:38Z</time></trkpt>
<trkpt lat="46.27451" lon="7.28583"><ele>1920.8</ele><time>2017-05-28T10:20:43Z</time></trkpt>
<trkpt lat="46.27473" lon="7.28587"><ele>1920.4</ele><time>2017-05-28T10:20:49Z</time></trkpt>
<trkpt lat="46.27491" lon="7.28583"><ele>1921.8</ele><time>2017-05-28T10:20:58Z</time></trkpt>
<trkpt lat="46.27514" lon="7.28582"><ele>1924</ele><time>2017-05-28T10:21:16Z</time></trkpt>
<trkpt lat="46.27521" lon="7.28582"><ele>1924.8</ele><time>2017-05-28T10:21:21Z</time></trkpt>
<trkpt lat="46.27528" lon="7.28582"><ele>1925.8</ele><time>2017-05-28T10:21:26Z</time></trkpt>
<trkpt lat="46.27533" lon="7.28581"><ele>1926.4</ele><time>2017-05-28T10:21:30Z</time></trkpt>
<trkpt lat="46.27537" lon="7.28581"><ele>1926.8</ele><time>2017-05-28T10:21:33Z</time></trkpt>
<trkpt lat="46.27543" lon="7.28581"><ele>1927.4</ele><time>2017-05-28T10:21:37Z</time></trkpt>
<trkpt lat="46.27549" lon="7.2858"><ele>1927.8</ele><time>2017-05-28T10:21:42Z</time></trkpt>
<trkpt lat="46.27559" lon="7.2858"><ele>1928.8</ele><time>2017-05-28T10:21:49Z</time></trkpt>
<trkpt lat="46.27577" lon="7.28579"><ele>1930</ele><time>2017-05-28T10:22:03Z</time></trkpt>
<trkpt lat="46.27598" lon="7.28592"><ele>1932.8</ele><time>2017-05-28T10:22:23Z</time></trkpt>
<trkpt lat="46.27614" lon="7.28605"><ele>1935.8</ele><time>2017-05-28T10:22:40Z</time></trkpt>
<trkpt lat="46.27625" lon="7.28614"><ele>1938</ele><time>2017-05-28T10:22:52Z</time></trkpt>
<trkpt lat="46.27636" lon="7.28623"><ele>1939.8</ele><time>2017-05-28T10:23:03Z</time></trkpt>
<trkpt lat="46.27652" lon="7.28636"><ele>1942.4</ele><time>2017-05-28T10:23:19Z</time></trkpt>
<trkpt lat="46.27672" lon="7.28645"><ele>1945.4</ele><time>2017-05-28T10:23:39Z</time></trkpt>
<trkpt lat="46.27688" lon="7.28656"><ele>1947.6</ele><time>2017-05-28T10:23:56Z</time></trkpt>
<trkpt lat="46.27705" lon="7.28666"><ele>1949.8</ele><time>2017-05-28T10:24:13Z</time></trkpt>
<trkpt lat="46.27713" lon="7.28669"><ele>1951</ele><time>2017-05-28T10:24:20Z</time></trkpt>
<trkpt lat="46.27717" lon="7.2867"><ele>1952</ele><time>2017-05-28T10:24:24Z</time></trkpt>
<trkpt lat="46.27734" lon="7.28678"><ele>1954</ele><time>2017-05-28T10:24:41Z</time></trkpt>
<trkpt lat="46.27735" lon="7.28679"><ele>1954</ele><time>2017-05-28T10:24:42Z</time></trkpt>
<trkpt lat="46.27751" lon="7.28694"><ele>1956.4</ele><time>2017-05-28T10:24:59Z</time></trkpt>
<trkpt lat="46.2776" lon="7.28719"><ele>1958</ele><time>2017-05-28T10:25:14Z</time></trkpt>
<trkpt lat="46.27776" lon="7.28728"><ele>1959.6</ele><time>2017-05-28T10:25:28Z</time></trkpt>
<trkpt lat="46.27791" lon="7.28744"><ele>1961.6</ele><time>2017-05-28T10:25:42Z</time></trkpt>
<trkpt lat="46.27792" lon="7.2875"><ele>1962</ele><time>2017-05-28T10:25:45Z</time></trkpt>
<trkpt lat="46.27795" lon="7.28757"><ele>1962.6</ele><time>2017-05-28T10:25:49Z</time></trkpt>
<trkpt lat="46.27803" lon="7.28782"><ele>1965.6</ele><time>2017-05-28T10:26:04Z</time></trkpt>
<trkpt lat="46.27814" lon="7.28803"><ele>1967.4</ele><time>2017-05-28T10:26:18Z</time></trkpt>
<trkpt lat="46.27826" lon="7.28825"><ele>1969.6</ele><time>2017-05-28T10:26:33Z</time></trkpt>
<trkpt lat="46.27834" lon="7.28848"><ele>1972.8</ele><time>2017-05-28T10:26:48Z</time></trkpt>
<trkpt lat="46.27842" lon="7.2887"><ele>1974.2</ele><time>2017-05-28T10:27:01Z</time></trkpt>
<trkpt lat="46.27845" lon="7.28885"><ele>1974.6</ele><time>2017-05-28T10:27:08Z</time></trkpt>
<trkpt lat="46.27852" lon="7.2892"><ele>1974.2</ele><time>2017-05-28T10:27:22Z</time></trkpt>
<trkpt lat="46.27859" lon="7.2894"><ele>1974</ele><time>2017-05-28T10:27:31Z</time></trkpt>
<trkpt lat="46.27858" lon="7.2894"><ele>1974</ele><time>2017-05-28T10:27:36Z</time></trkpt>
<trkpt lat="46.27852" lon="7.28925"><ele>1973.8</ele><time>2017-05-28T10:27:54Z</time></trkpt>
<trkpt lat="46.2785" lon="7.28912"><ele>1973.6</ele><time>2017-05-28T10:28:00Z</time></trkpt>
<trkpt lat="46.27846" lon="7.28914"><ele>1972.6</ele><time>2017-05-28T10:28:03Z</time></trkpt>
<trkpt lat="46.27845" lon="7.28921"><ele>1971</ele><time>2017-05-28T10:28:05Z</time></trkpt>
<trkpt lat="46.27837" lon="7.28943"><ele>1966.6</ele><time>2017-05-28T10:28:10Z</time></trkpt>
<trkpt lat="46.27833" lon="7.28962"><ele>1961.6</ele><time>2017-05-28T10:28:17Z</time></trkpt>
<trkpt lat="46.27832" lon="7.28988"><ele>1955.8</ele><time>2017-05-28T10:28:27Z</time></trkpt>
<trkpt lat="46.27825" lon="7.28993"><ele>1954.8</ele><time>2017-05-28T10:28:33Z</time></trkpt>
<trkpt lat="46.27824" lon="7.28992"><ele>1954.8</ele><time>2017-05-28T10:28:43Z</time></trkpt>
<trkpt lat="46.27822" lon="7.28991"><ele>1955</ele><time>2017-05-28T10:28:50Z</time></trkpt>
<trkpt lat="46.27822" lon="7.28991"><ele>1955.2</ele><time>2017-05-28T10:29:16Z</time></trkpt>
<trkpt lat="46.27822" lon="7.28991"><ele>1955.2</ele><time>2017-05-28T10:29:23Z</time></trkpt>
<trkpt lat="46.27822" lon="7.2899"><ele>1955.2</ele><time>2017-05-28T10:29:24Z</time></trkpt>
<trkpt lat="46.27822" lon="7.28991"><ele>1955.2</ele><time>2017-05-28T10:29:25Z</time></trkpt>
<trkpt lat="46.27823" lon="7.2899"><ele>1955.2</ele><time>2017-05-28T10:29:49Z</time></trkpt>
<trkpt lat="46.27823" lon="7.28988"><ele>1955.4</ele><time>2017-05-28T10:29:58Z</time></trkpt>
<trkpt lat="46.27823" lon="7.28989"><ele>1955.2</ele><time>2017-05-28T10:30:05Z</time></trkpt>
<trkpt lat="46.27822" lon="7.28991"><ele>1955.4</ele><time>2017-05-28T10:30:15Z</time></trkpt>
<trkpt lat="46.27822" lon="7.28991"><ele>1955.6</ele><time>2017-05-28T10:30:26Z</time></trkpt>
<trkpt lat="46.27823" lon="7.2899"><ele>1955.6</ele><time>2017-05-28T10:30:32Z</time></trkpt>
<trkpt lat="46.27823" lon="7.28988"><ele>1955.6</ele><time>2017-05-28T10:30:39Z</time></trkpt>
<trkpt lat="46.27823" lon="7.28988"><ele>1955.6</ele><time>2017-05-28T10:30:40Z</time></trkpt>
<trkpt lat="46.27823" lon="7.28988"><ele>1955.6</ele><time>2017-05-28T10:30:41Z</time></trkpt>
<trkpt lat="46.27824" lon="7.28986"><ele>1955.4</ele><time>2017-05-28T10:30:55Z</time></trkpt>
<trkpt lat="46.27824" lon="7.28986"><ele>1955.4</ele><time>2017-05-28T10:30:58Z</time></trkpt>
<trkpt lat="46.27828" lon="7.28989"><ele>1956.6</ele><time>2017-05-28T10:31:33Z</time></trkpt>
<trkpt lat="46.27828" lon="7.28989"><ele>1956.6</ele><time>2017-05-28T10:31:38Z</time></trkpt>
<trkpt lat="46.27825" lon="7.28993"><ele>1956.2</ele><time>2017-05-28T10:31:55Z</time></trkpt>
<trkpt lat="46.27821" lon="7.2899"><ele>1956.2</ele><time>2017-05-28T10:32:21Z</time></trkpt>
<trkpt lat="46.27821" lon="7.2899"><ele>1956.2</ele><time>2017-05-28T10:32:56Z</time></trkpt>
<trkpt lat="46.27821" lon="7.28989"><ele>1956.4</ele><time>2017-05-28T10:33:07Z</time></trkpt>
<trkpt lat="46.27821" lon="7.28988"><ele>1956.4</ele><time>2017-05-28T10:33:10Z</time></trkpt>
<trkpt lat="46.27822" lon="7.28988"><ele>1956.2</ele><time>2017-05-28T10:33:16Z</time></trkpt>
<trkpt lat="46.27822" lon="7.28988"><ele>1956.2</ele><time>2017-05-28T10:33:20Z</time></trkpt>
<trkpt lat="46.27822" lon="7.28987"><ele>1955.6</ele><time>2017-05-28T10:33:28Z</time></trkpt>
<trkpt lat="46.27823" lon="7.28987"><ele>1955.4</ele><time>2017-05-28T10:33:30Z</time></trkpt>
<trkpt lat="46.27823" lon="7.28987"><ele>1955.4</ele><time>2017-05-28T10:33:33Z</time></trkpt>
<trkpt lat="46.27823" lon="7.28987"><ele>1955.2</ele><time>2017-05-28T10:33:36Z</time></trkpt>
<trkpt lat="46.27821" lon="7.28988"><ele>1956</ele><time>2017-05-28T10:33:52Z</time></trkpt>
<trkpt lat="46.27821" lon="7.28989"><ele>1956</ele><time>2017-05-28T10:33:53Z</time></trkpt>
<trkpt lat="46.27822" lon="7.28989"><ele>1956</ele><time>2017-05-28T10:33:58Z</time></trkpt>
<trkpt lat="46.27822" lon="7.28989"><ele>1956</ele><time>2017-05-28T10:33:59Z</time></trkpt>
<trkpt lat="46.27822" lon="7.28989"><ele>1956</ele><time>2017-05-28T10:34:00Z</time></trkpt>
<trkpt lat="46.27822" lon="7.2899"><ele>1956.2</ele><time>2017-05-28T10:34:04Z</time></trkpt>
<trkpt lat="46.27822" lon="7.2899"><ele>1956.4</ele><time>2017-05-28T10:34:08Z</time></trkpt>
<trkpt lat="46.27822" lon="7.2899"><ele>1956.4</ele><time>2017-05-28T10:34:09Z</time></trkpt>
<trkpt lat="46.27822" lon="7.2899"><ele>1956.4</ele><time>2017-05-28T10:34:10Z</time></trkpt>
<trkpt lat="46.27822" lon="7.2899"><ele>1956.6</ele><time>2017-05-28T10:34:11Z</time></trkpt>
<trkpt lat="46.27823" lon="7.28991"><ele>1956.4</ele><time>2017-05-28T10:34:19Z</time></trkpt>
<trkpt lat="46.2783" lon="7.28992"><ele>1956.6</ele><time>2017-05-28T10:34:38Z</time></trkpt>
<trkpt lat="46.2784" lon="7.28996"><ele>1956.6</ele><time>2017-05-28T10:34:54Z</time></trkpt>
<trkpt lat="46.27861" lon="7.28997"><ele>1954.4</ele><time>2017-05-28T10:35:01Z</time></trkpt>
<trkpt lat="46.27882" lon="7.29002"><ele>1952.4</ele><time>2017-05-28T10:35:05Z</time></trkpt>
<trkpt lat="46.27888" lon="7.29002"><ele>1952</ele><time>2017-05-28T10:35:06Z</time></trkpt>
<trkpt lat="46.27911" lon="7.29001"><ele>1951.6</ele><time>2017-05-28T10:35:10Z</time></trkpt>
<trkpt lat="46.27932" lon="7.29001"><ele>1950.4</ele><time>2017-05-28T10:35:14Z</time></trkpt>
<trkpt lat="46.27953" lon="7.28996"><ele>1949</ele><time>2017-05-28T10:35:18Z</time></trkpt>
<trkpt lat="46.27961" lon="7.28993"><ele>1949.2</ele><time>2017-05-28T10:35:20Z</time></trkpt>
<trkpt lat="46.27979" lon="7.28981"><ele>1951.4</ele><time>2017-05-28T10:35:27Z</time></trkpt>
<trkpt lat="46.27996" lon="7.28971"><ele>1951</ele><time>2017-05-28T10:35:35Z</time></trkpt>
<trkpt lat="46.28" lon="7.28968"><ele>1951.2</ele><time>2017-05-28T10:35:37Z</time></trkpt>
<trkpt lat="46.28017" lon="7.28952"><ele>1950.6</ele><time>2017-05-28T10:35:45Z</time></trkpt>
<trkpt lat="46.28026" lon="7.28947"><ele>1950.4</ele><time>2017-05-28T10:35:49Z</time></trkpt>
<trkpt lat="46.28044" lon="7.28941"><ele>1949</ele><time>2017-05-28T10:35:57Z</time></trkpt>
<trkpt lat="46.28047" lon="7.2894"><ele>1948.4</ele><time>2017-05-28T10:35:59Z</time></trkpt>
<trkpt lat="46.28048" lon="7.28939"><ele>1947.8</ele><time>2017-05-28T10:36:04Z</time></trkpt>
<trkpt lat="46.2805" lon="7.28937"><ele>1947.4</ele><time>2017-05-28T10:36:18Z</time></trkpt>
<trkpt lat="46.28046" lon="7.28939"><ele>1947.2</ele><time>2017-05-28T10:36:33Z</time></trkpt>
<trkpt lat="46.28045" lon="7.28939"><ele>1946.4</ele><time>2017-05-28T10:36:41Z</time></trkpt>
<trkpt lat="46.28045" lon="7.28939"><ele>1946.4</ele><time>2017-05-28T10:36:43Z</time></trkpt>
<trkpt lat="46.28045" lon="7.28939"><ele>1946.4</ele><time>2017-05-28T10:36:46Z</time></trkpt>
<trkpt lat="46.28046" lon="7.28939"><ele>1946.4</ele><time>2017-05-28T10:36:53Z</time></trkpt>
<trkpt lat="46.28046" lon="7.28939"><ele>1946.6</ele><time>2017-05-28T10:36:54Z</time></trkpt>
<trkpt lat="46.28046" lon="7.28939"><ele>1946.6</ele><time>2017-05-28T10:36:56Z</time></trkpt>
<trkpt lat="46.28046" lon="7.2894"><ele>1946.6</ele><time>2017-05-28T10:36:59Z</time></trkpt>
<trkpt lat="46.28046" lon="7.28938"><ele>1945.2</ele><time>2017-05-28T10:37:13Z</time></trkpt>
<trkpt lat="46.28047" lon="7.28938"><ele>1945</ele><time>2017-05-28T10:37:16Z</time></trkpt>
<trkpt lat="46.28064" lon="7.28925"><ele>1944.8</ele><time>2017-05-28T10:37:27Z</time></trkpt>
<trkpt lat="46.28073" lon="7.2892"><ele>1944.8</ele><time>2017-05-28T10:37:30Z</time></trkpt>
<trkpt lat="46.28088" lon="7.28907"><ele>1946.2</ele><time>2017-05-28T10:37:37Z</time></trkpt>
<trkpt lat="46.28105" lon="7.28896"><ele>1947.6</ele><time>2017-05-28T10:37:47Z</time></trkpt>
<trkpt lat="46.28127" lon="7.28879"><ele>1949.8</ele><time>2017-05-28T10:38:00Z</time></trkpt>
<trkpt lat="46.28138" lon="7.28873"><ele>1951</ele><time>2017-05-28T10:38:07Z</time></trkpt>
<trkpt lat="46.28155" lon="7.28862"><ele>1953.4</ele><time>2017-05-28T10:38:22Z</time></trkpt>
<trkpt lat="46.28172" lon="7.28853"><ele>1953.4</ele><time>2017-05-28T10:38:33Z</time></trkpt>
<trkpt lat="46.28173" lon="7.28852"><ele>1953.4</ele><time>2017-05-28T10:38:34Z</time></trkpt>
<trkpt lat="46.28175" lon="7.28852"><ele>1953.6</ele><time>2017-05-28T10:38:35Z</time></trkpt>
<trkpt lat="46.28179" lon="7.2885"><ele>1954</ele><time>2017-05-28T10:38:38Z</time></trkpt>
<trkpt lat="46.28188" lon="7.28845"><ele>1954.8</ele><time>2017-05-28T10:38:44Z</time></trkpt>
<trkpt lat="46.28203" lon="7.28842"><ele>1956.2</ele><time>2017-05-28T10:38:53Z</time></trkpt>
<trkpt lat="46.28214" lon="7.28833"><ele>1957.2</ele><time>2017-05-28T10:39:01Z</time></trkpt>
<trkpt lat="46.28231" lon="7.28823"><ele>1960.6</ele><time>2017-05-28T10:39:17Z</time></trkpt>
<trkpt lat="46.28242" lon="7.28818"><ele>1963.4</ele><time>2017-05-28T10:39:27Z</time></trkpt>
<trkpt lat="46.28251" lon="7.28821"><ele>1963.8</ele><time>2017-05-28T10:39:32Z</time></trkpt>
<trkpt lat="46.28272" lon="7.28822"><ele>1963.8</ele><time>2017-05-28T10:39:43Z</time></trkpt>
<trkpt lat="46.2828" lon="7.28826"><ele>1963</ele><time>2017-05-28T10:39:47Z</time></trkpt>
<trkpt lat="46.28285" lon="7.28823"><ele>1963.8</ele><time>2017-05-28T10:39:50Z</time></trkpt>
<trkpt lat="46.28286" lon="7.28823"><ele>1963.6</ele><time>2017-05-28T10:39:51Z</time></trkpt>
<trkpt lat="46.28287" lon="7.28823"><ele>1963.8</ele><time>2017-05-28T10:39:52Z</time></trkpt>
<trkpt lat="46.2829" lon="7.28819"><ele>1964.4</ele><time>2017-05-28T10:39:55Z</time></trkpt>
<trkpt lat="46.28294" lon="7.28816"><ele>1964.8</ele><time>2017-05-28T10:39:58Z</time></trkpt>
<trkpt lat="46.28302" lon="7.28807"><ele>1965.4</ele><time>2017-05-28T10:40:13Z</time></trkpt>
<trkpt lat="46.28302" lon="7.28805"><ele>1965.6</ele><time>2017-05-28T10:40:15Z</time></trkpt>
<trkpt lat="46.28303" lon="7.28803"><ele>1965.6</ele><time>2017-05-28T10:40:17Z</time></trkpt>
<trkpt lat="46.28303" lon="7.28802"><ele>1965.6</ele><time>2017-05-28T10:40:18Z</time></trkpt>
<trkpt lat="46.28306" lon="7.28799"><ele>1965.8</ele><time>2017-05-28T10:40:23Z</time></trkpt>
<trkpt lat="46.28311" lon="7.28797"><ele>1966.2</ele><time>2017-05-28T10:40:31Z</time></trkpt>
<trkpt lat="46.28316" lon="7.28797"><ele>1966.4</ele><time>2017-05-28T10:40:38Z</time></trkpt>
<trkpt lat="46.28326" lon="7.28795"><ele>1967.6</ele><time>2017-05-28T10:40:56Z</time></trkpt>
<trkpt lat="46.28335" lon="7.28818"><ele>1969.8</ele><time>2017-05-28T10:41:16Z</time></trkpt>
<trkpt lat="46.28338" lon="7.28826"><ele>1970.6</ele><time>2017-05-28T10:41:19Z</time></trkpt>
<trkpt lat="46.28338" lon="7.28828"><ele>1970.8</ele><time>2017-05-28T10:41:20Z</time></trkpt>
<trkpt lat="46.28338" lon="7.2884"><ele>1970.8</ele><time>2017-05-28T10:41:25Z</time></trkpt>
<trkpt lat="46.28338" lon="7.28846"><ele>1970.4</ele><time>2017-05-28T10:41:27Z</time></trkpt>
<trkpt lat="46.28339" lon="7.28858"><ele>1970</ele><time>2017-05-28T10:41:30Z</time></trkpt>
<trkpt lat="46.28339" lon="7.28865"><ele>1970</ele><time>2017-05-28T10:41:32Z</time></trkpt>
<trkpt lat="46.28339" lon="7.28871"><ele>1969.6</ele><time>2017-05-28T10:41:35Z</time></trkpt>
<trkpt lat="46.28338" lon="7.28879"><ele>1968.2</ele><time>2017-05-28T10:41:39Z</time></trkpt>
<trkpt lat="46.28348" lon="7.28901"><ele>1965.2</ele><time>2017-05-28T10:41:46Z</time></trkpt>
<trkpt lat="46.28354" lon="7.28904"><ele>1965</ele><time>2017-05-28T10:41:48Z</time></trkpt>
<trkpt lat="46.28371" lon="7.28914"><ele>1967.2</ele><time>2017-05-28T10:41:57Z</time></trkpt>
<trkpt lat="46.28379" lon="7.28919"><ele>1967.8</ele><time>2017-05-28T10:42:00Z</time></trkpt>
<trkpt lat="46.28386" lon="7.2892"><ele>1969</ele><time>2017-05-28T10:42:05Z</time></trkpt>
<trkpt lat="46.28398" lon="7.28919"><ele>1970.4</ele><time>2017-05-28T10:42:13Z</time></trkpt>
<trkpt lat="46.28416" lon="7.28927"><ele>1972</ele><time>2017-05-28T10:42:24Z</time></trkpt>
<trkpt lat="46.28422" lon="7.28933"><ele>1973.8</ele><time>2017-05-28T10:42:28Z</time></trkpt>
<trkpt lat="46.28423" lon="7.28934"><ele>1974</ele><time>2017-05-28T10:42:29Z</time></trkpt>
<trkpt lat="46.28437" lon="7.2894"><ele>1975.6</ele><time>2017-05-28T10:42:37Z</time></trkpt>
<trkpt lat="46.2844" lon="7.2894"><ele>1976.2</ele><time>2017-05-28T10:42:39Z</time></trkpt>
<trkpt lat="46.28452" lon="7.28951"><ele>1977.8</ele><time>2017-05-28T10:42:48Z</time></trkpt>
<trkpt lat="46.28469" lon="7.2896"><ele>1980.4</ele><time>2017-05-28T10:43:00Z</time></trkpt>
<trkpt lat="46.28486" lon="7.28975"><ele>1981.2</ele><time>2017-05-28T10:43:16Z</time></trkpt>
<trkpt lat="46.28489" lon="7.2898"><ele>1981.4</ele><time>2017-05-28T10:43:21Z</time></trkpt>
<trkpt lat="46.28491" lon="7.28984"><ele>1982.2</ele><time>2017-05-28T10:43:29Z</time></trkpt>
<trkpt lat="46.28494" lon="7.28986"><ele>1983.4</ele><time>2017-05-28T10:43:46Z</time></trkpt>
<trkpt lat="46.28493" lon="7.28985"><ele>1983.2</ele><time>2017-05-28T10:43:57Z</time></trkpt>
<trkpt lat="46.28495" lon="7.28986"><ele>1982.2</ele><time>2017-05-28T10:44:14Z</time></trkpt>
<trkpt lat="46.28497" lon="7.28989"><ele>1982.2</ele><time>2017-05-28T10:44:18Z</time></trkpt>
<trkpt lat="46.28498" lon="7.28995"><ele>1982.2</ele><time>2017-05-28T10:44:26Z</time></trkpt>
<trkpt lat="46.28497" lon="7.28993"><ele>1982</ele><time>2017-05-28T10:44:35Z</time></trkpt>
<trkpt lat="46.28496" lon="7.28993"><ele>1981.8</ele><time>2017-05-28T10:44:37Z</time></trkpt>
<trkpt lat="46.28495" lon="7.28994"><ele>1981.4</ele><time>2017-05-28T10:44:53Z</time></trkpt>
<trkpt lat="46.28495" lon="7.28994"><ele>1981.2</ele><time>2017-05-28T10:44:56Z</time></trkpt>
<trkpt lat="46.28495" lon="7.28994"><ele>1980.6</ele><time>2017-05-28T10:45:27Z</time></trkpt>
<trkpt lat="46.28498" lon="7.28993"><ele>1980.2</ele><time>2017-05-28T10:45:43Z</time></trkpt>
<trkpt lat="46.28497" lon="7.28993"><ele>1980</ele><time>2017-05-28T10:45:51Z</time></trkpt>
<trkpt lat="46.28491" lon="7.28981"><ele>1980.4</ele><time>2017-05-28T10:45:57Z</time></trkpt>
<trkpt lat="46.28491" lon="7.28979"><ele>1980.4</ele><time>2017-05-28T10:46:01Z</time></trkpt>
<trkpt lat="46.28494" lon="7.28985"><ele>1981.6</ele><time>2017-05-28T10:46:11Z</time></trkpt>
<trkpt lat="46.285" lon="7.28995"><ele>1981.6</ele><time>2017-05-28T10:46:16Z</time></trkpt>
<trkpt lat="46.28499" lon="7.29001"><ele>1981.8</ele><time>2017-05-28T10:46:20Z</time></trkpt>
<trkpt lat="46.28497" lon="7.29"><ele>1981.6</ele><time>2017-05-28T10:46:24Z</time></trkpt>
<trkpt lat="46.28495" lon="7.28994"><ele>1981.2</ele><time>2017-05-28T10:46:28Z</time></trkpt>
<trkpt lat="46.28495" lon="7.28994"><ele>1980.8</ele><time>2017-05-28T10:46:34Z</time></trkpt>
<trkpt lat="46.28495" lon="7.28994"><ele>1980.8</ele><time>2017-05-28T10:46:45Z</time></trkpt>
<trkpt lat="46.28499" lon="7.29"><ele>1980.8</ele><time>2017-05-28T10:47:00Z</time></trkpt>
<trkpt lat="46.285" lon="7.29001"><ele>1980.4</ele><time>2017-05-28T10:47:21Z</time></trkpt>
<trkpt lat="46.28501" lon="7.29006"><ele>1980.6</ele><time>2017-05-28T10:47:24Z</time></trkpt>
<trkpt lat="46.28504" lon="7.2902"><ele>1981.2</ele><time>2017-05-28T10:47:31Z</time></trkpt>
<trkpt lat="46.28504" lon="7.29022"><ele>1981.4</ele><time>2017-05-28T10:47:32Z</time></trkpt>
<trkpt lat="46.28506" lon="7.29028"><ele>1982</ele><time>2017-05-28T10:47:35Z</time></trkpt>
<trkpt lat="46.28504" lon="7.29043"><ele>1983</ele><time>2017-05-28T10:47:43Z</time></trkpt>
<trkpt lat="46.28501" lon="7.29054"><ele>1983.4</ele><time>2017-05-28T10:47:49Z</time></trkpt>
<trkpt lat="46.28501" lon="7.29061"><ele>1983.8</ele><time>2017-05-28T10:47:53Z</time></trkpt>
<trkpt lat="46.28501" lon="7.29077"><ele>1984.4</ele><time>2017-05-28T10:48:01Z</time></trkpt>
<trkpt lat="46.285" lon="7.29083"><ele>1984.4</ele><time>2017-05-28T10:48:05Z</time></trkpt>
<trkpt lat="46.28494" lon="7.29098"><ele>1984.6</ele><time>2017-05-28T10:48:13Z</time></trkpt>
<trkpt lat="46.28488" lon="7.29125"><ele>1984.8</ele><time>2017-05-28T10:48:22Z</time></trkpt>
<trkpt lat="46.28485" lon="7.2914"><ele>1985.2</ele><time>2017-05-28T10:48:26Z</time></trkpt>
<trkpt lat="46.28479" lon="7.29168"><ele>1984.8</ele><time>2017-05-28T10:48:35Z</time></trkpt>
<trkpt lat="46.28477" lon="7.29177"><ele>1985</ele><time>2017-05-28T10:48:37Z</time></trkpt>
<trkpt lat="46.28476" lon="7.29189"><ele>1985.2</ele><time>2017-05-28T10:48:40Z</time></trkpt>
<trkpt lat="46.28473" lon="7.29215"><ele>1986</ele><time>2017-05-28T10:48:49Z</time></trkpt>
<trkpt lat="46.28472" lon="7.29221"><ele>1986.2</ele><time>2017-05-28T10:48:51Z</time></trkpt>
<trkpt lat="46.28468" lon="7.29245"><ele>1986.4</ele><time>2017-05-28T10:49:00Z</time></trkpt>
<trkpt lat="46.28459" lon="7.2927"><ele>1987.6</ele><time>2017-05-28T10:49:11Z</time></trkpt>
<trkpt lat="46.28449" lon="7.29295"><ele>1988</ele><time>2017-05-28T10:49:21Z</time></trkpt>
<trkpt lat="46.28441" lon="7.2931"><ele>1987.4</ele><time>2017-05-28T10:49:27Z</time></trkpt>
<trkpt lat="46.28434" lon="7.29337"><ele>1986.2</ele><time>2017-05-28T10:49:35Z</time></trkpt>
<trkpt lat="46.28432" lon="7.29359"><ele>1985.6</ele><time>2017-05-28T10:49:38Z</time></trkpt>
<trkpt lat="46.28423" lon="7.29385"><ele>1985</ele><time>2017-05-28T10:49:42Z</time></trkpt>
<trkpt lat="46.28419" lon="7.29395"><ele>1984.8</ele><time>2017-05-28T10:49:44Z</time></trkpt>
<trkpt lat="46.28417" lon="7.29401"><ele>1984.8</ele><time>2017-05-28T10:49:45Z</time></trkpt>
<trkpt lat="46.28415" lon="7.29406"><ele>1984.4</ele><time>2017-05-28T10:49:46Z</time></trkpt>
<trkpt lat="46.28412" lon="7.29411"><ele>1984.4</ele><time>2017-05-28T10:49:47Z</time></trkpt>
<trkpt lat="46.2841" lon="7.29417"><ele>1984.4</ele><time>2017-05-28T10:49:48Z</time></trkpt>
<trkpt lat="46.28406" lon="7.29436"><ele>1986.6</ele><time>2017-05-28T10:49:52Z</time></trkpt>
<trkpt lat="46.28406" lon="7.29441"><ele>1986.6</ele><time>2017-05-28T10:49:53Z</time></trkpt>
<trkpt lat="46.28408" lon="7.29455"><ele>1986.4</ele><time>2017-05-28T10:49:56Z</time></trkpt>
<trkpt lat="46.28413" lon="7.29463"><ele>1985.8</ele><time>2017-05-28T10:49:58Z</time></trkpt>
<trkpt lat="46.28427" lon="7.29476"><ele>1984.6</ele><time>2017-05-28T10:50:02Z</time></trkpt>
<trkpt lat="46.28436" lon="7.29482"><ele>1983.8</ele><time>2017-05-28T10:50:04Z</time></trkpt>
<trkpt lat="46.28457" lon="7.29489"><ele>1981.2</ele><time>2017-05-28T10:50:08Z</time></trkpt>
<trkpt lat="46.28469" lon="7.29494"><ele>1980.8</ele><time>2017-05-28T10:50:10Z</time></trkpt>
<trkpt lat="46.28489" lon="7.29514"><ele>1979.4</ele><time>2017-05-28T10:50:14Z</time></trkpt>
<trkpt lat="46.28504" lon="7.29532"><ele>1978.4</ele><time>2017-05-28T10:50:17Z</time></trkpt>
<trkpt lat="46.28509" lon="7.29538"><ele>1978.2</ele><time>2017-05-28T10:50:18Z</time></trkpt>
<trkpt lat="46.28515" lon="7.29554"><ele>1978.2</ele><time>2017-05-28T10:50:20Z</time></trkpt>
<trkpt lat="46.28519" lon="7.29567"><ele>1978.4</ele><time>2017-05-28T10:50:22Z</time></trkpt>
<trkpt lat="46.2853" lon="7.29594"><ele>1976.4</ele><time>2017-05-28T10:50:26Z</time></trkpt>
<trkpt lat="46.2854" lon="7.29619"><ele>1974</ele><time>2017-05-28T10:50:30Z</time></trkpt>
<trkpt lat="46.28552" lon="7.2964"><ele>1971.2</ele><time>2017-05-28T10:50:34Z</time></trkpt>
<trkpt lat="46.28567" lon="7.2966"><ele>1968.8</ele><time>2017-05-28T10:50:37Z</time></trkpt>
<trkpt lat="46.28571" lon="7.29667"><ele>1968.2</ele><time>2017-05-28T10:50:38Z</time></trkpt>
<trkpt lat="46.28578" lon="7.29691"><ele>1966.8</ele><time>2017-05-28T10:50:41Z</time></trkpt>
<trkpt lat="46.28579" lon="7.29715"><ele>1966</ele><time>2017-05-28T10:50:44Z</time></trkpt>
<trkpt lat="46.28578" lon="7.29726"><ele>1964</ele><time>2017-05-28T10:50:46Z</time></trkpt>
<trkpt lat="46.28579" lon="7.29743"><ele>1961</ele><time>2017-05-28T10:50:50Z</time></trkpt>
<trkpt lat="46.28586" lon="7.29751"><ele>1958.8</ele><time>2017-05-28T10:50:53Z</time></trkpt>
<trkpt lat="46.28593" lon="7.2976"><ele>1957.8</ele><time>2017-05-28T10:50:56Z</time></trkpt>
<trkpt lat="46.28605" lon="7.29783"><ele>1957.6</ele><time>2017-05-28T10:51:02Z</time></trkpt>
<trkpt lat="46.28611" lon="7.29807"><ele>1959.8</ele><time>2017-05-28T10:51:09Z</time></trkpt>
<trkpt lat="46.28607" lon="7.29816"><ele>1960</ele><time>2017-05-28T10:51:11Z</time></trkpt>
<trkpt lat="46.28594" lon="7.2985"><ele>1957.6</ele><time>2017-05-28T10:51:20Z</time></trkpt>
<trkpt lat="46.28597" lon="7.29859"><ele>1956.2</ele><time>2017-05-28T10:51:24Z</time></trkpt>
<trkpt lat="46.28599" lon="7.29861"><ele>1955.4</ele><time>2017-05-28T10:51:27Z</time></trkpt>
<trkpt lat="46.2862" lon="7.29861"><ele>1952.2</ele><time>2017-05-28T10:51:36Z</time></trkpt>
<trkpt lat="46.28632" lon="7.29885"><ele>1950.2</ele><time>2017-05-28T10:51:40Z</time></trkpt>
<trkpt lat="46.28631" lon="7.299"><ele>1949.6</ele><time>2017-05-28T10:51:42Z</time></trkpt>
<trkpt lat="46.2863" lon="7.29905"><ele>1949.4</ele><time>2017-05-28T10:51:43Z</time></trkpt>
<trkpt lat="46.28631" lon="7.29911"><ele>1949.2</ele><time>2017-05-28T10:51:57Z</time></trkpt>
<trkpt lat="46.2863" lon="7.29912"><ele>1949.6</ele><time>2017-05-28T10:52:30Z</time></trkpt>
<trkpt lat="46.2863" lon="7.29912"><ele>1949</ele><time>2017-05-28T10:52:40Z</time></trkpt>
<trkpt lat="46.2863" lon="7.29912"><ele>1949</ele><time>2017-05-28T10:52:48Z</time></trkpt>
<trkpt lat="46.28631" lon="7.29911"><ele>1949.2</ele><time>2017-05-28T10:53:00Z</time></trkpt>
<trkpt lat="46.2863" lon="7.29911"><ele>1949.4</ele><time>2017-05-28T10:53:07Z</time></trkpt>
<trkpt lat="46.2863" lon="7.2991"><ele>1949.2</ele><time>2017-05-28T10:53:32Z</time></trkpt>
<trkpt lat="46.28631" lon="7.29911"><ele>1949.2</ele><time>2017-05-28T10:53:37Z</time></trkpt>
<trkpt lat="46.28631" lon="7.29911"><ele>1949.4</ele><time>2017-05-28T10:53:46Z</time></trkpt>
<trkpt lat="46.28632" lon="7.2991"><ele>1949.8</ele><time>2017-05-28T10:53:54Z</time></trkpt>
<trkpt lat="46.28633" lon="7.2991"><ele>1950</ele><time>2017-05-28T10:54:03Z</time></trkpt>
<trkpt lat="46.28633" lon="7.2991"><ele>1950.2</ele><time>2017-05-28T10:54:05Z</time></trkpt>
<trkpt lat="46.28633" lon="7.2991"><ele>1950.2</ele><time>2017-05-28T10:54:08Z</time></trkpt>
<trkpt lat="46.28629" lon="7.29911"><ele>1949</ele><time>2017-05-28T10:54:28Z</time></trkpt>
<trkpt lat="46.28629" lon="7.29911"><ele>1948.8</ele><time>2017-05-28T10:54:43Z</time></trkpt>
<trkpt lat="46.28631" lon="7.29912"><ele>1949.4</ele><time>2017-05-28T10:54:58Z</time></trkpt>
<trkpt lat="46.28628" lon="7.29912"><ele>1948.4</ele><time>2017-05-28T10:55:42Z</time></trkpt>
<trkpt lat="46.28629" lon="7.29912"><ele>1948.4</ele><time>2017-05-28T10:56:01Z</time></trkpt>
<trkpt lat="46.2863" lon="7.29911"><ele>1948.6</ele><time>2017-05-28T10:56:09Z</time></trkpt>
<trkpt lat="46.2863" lon="7.29911"><ele>1948.6</ele><time>2017-05-28T10:56:12Z</time></trkpt>
<trkpt lat="46.2863" lon="7.29911"><ele>1948.4</ele><time>2017-05-28T10:56:18Z</time></trkpt>
<trkpt lat="46.2863" lon="7.29911"><ele>1948.4</ele><time>2017-05-28T10:56:19Z</time></trkpt>
<trkpt lat="46.2863" lon="7.29911"><ele>1948.2</ele><time>2017-05-28T10:56:22Z</time></trkpt>
<trkpt lat="46.2863" lon="7.29911"><ele>1948.2</ele><time>2017-05-28T10:56:23Z</time></trkpt>
<trkpt lat="46.2863" lon="7.29911"><ele>1948.2</ele><time>2017-05-28T10:56:24Z</time></trkpt>
<trkpt lat="46.2863" lon="7.29911"><ele>1947.8</ele><time>2017-05-28T10:56:45Z</time></trkpt>
<trkpt lat="46.2863" lon="7.29911"><ele>1948</ele><time>2017-05-28T10:56:46Z</time></trkpt>
<trkpt lat="46.2863" lon="7.29911"><ele>1948</ele><time>2017-05-28T10:56:51Z</time></trkpt>
<trkpt lat="46.2863" lon="7.29911"><ele>1948</ele><time>2017-05-28T10:56:53Z</time></trkpt>
<trkpt lat="46.2863" lon="7.29911"><ele>1948</ele><time>2017-05-28T10:56:56Z</time></trkpt>
<trkpt lat="46.28631" lon="7.29911"><ele>1948</ele><time>2017-05-28T10:56:58Z</time></trkpt>
<trkpt lat="46.2863" lon="7.29911"><ele>1948</ele><time>2017-05-28T10:57:01Z</time></trkpt>
<trkpt lat="46.2863" lon="7.29911"><ele>1947.8</ele><time>2017-05-28T10:57:10Z</time></trkpt>
<trkpt lat="46.2863" lon="7.29912"><ele>1946.8</ele><time>2017-05-28T10:57:37Z</time></trkpt>
<trkpt lat="46.2863" lon="7.29912"><ele>1947</ele><time>2017-05-28T10:57:43Z</time></trkpt>
<trkpt lat="46.2863" lon="7.2991"><ele>1947.2</ele><time>2017-05-28T10:58:16Z</time></trkpt>
<trkpt lat="46.28632" lon="7.29911"><ele>1947.4</ele><time>2017-05-28T10:58:20Z</time></trkpt>
<trkpt lat="46.28652" lon="7.29912"><ele>1946.4</ele><time>2017-05-28T10:58:28Z</time></trkpt>
<trkpt lat="46.28661" lon="7.29909"><ele>1945.6</ele><time>2017-05-28T10:58:30Z</time></trkpt>
<trkpt lat="46.28674" lon="7.29908"><ele>1944</ele><time>2017-05-28T10:58:33Z</time></trkpt>
<trkpt lat="46.28688" lon="7.299"><ele>1942</ele><time>2017-05-28T10:58:36Z</time></trkpt>
<trkpt lat="46.28694" lon="7.29896"><ele>1941.2</ele><time>2017-05-28T10:58:37Z</time></trkpt>
<trkpt lat="46.28699" lon="7.29895"><ele>1940.6</ele><time>2017-05-28T10:58:38Z</time></trkpt>
<trkpt lat="46.28705" lon="7.29894"><ele>1940</ele><time>2017-05-28T10:58:39Z</time></trkpt>
<trkpt lat="46.28717" lon="7.29906"><ele>1938.6</ele><time>2017-05-28T10:58:42Z</time></trkpt>
<trkpt lat="46.28721" lon="7.29921"><ele>1937.6</ele><time>2017-05-28T10:58:44Z</time></trkpt>
<trkpt lat="46.28722" lon="7.29953"><ele>1935.2</ele><time>2017-05-28T10:58:48Z</time></trkpt>
<trkpt lat="46.28722" lon="7.29966"><ele>1934</ele><time>2017-05-28T10:58:50Z</time></trkpt>
<trkpt lat="46.28738" lon="7.29976"><ele>1930.8</ele><time>2017-05-28T10:58:56Z</time></trkpt>
<trkpt lat="46.28747" lon="7.29968"><ele>1930</ele><time>2017-05-28T10:58:58Z</time></trkpt>
<trkpt lat="46.28758" lon="7.29959"><ele>1929</ele><time>2017-05-28T10:59:00Z</time></trkpt>
<trkpt lat="46.28776" lon="7.29945"><ele>1926.4</ele><time>2017-05-28T10:59:03Z</time></trkpt>
<trkpt lat="46.2879" lon="7.29934"><ele>1924.4</ele><time>2017-05-28T10:59:05Z</time></trkpt>
<trkpt lat="46.28813" lon="7.29927"><ele>1922.6</ele><time>2017-05-28T10:59:08Z</time></trkpt>
<trkpt lat="46.28821" lon="7.29925"><ele>1922</ele><time>2017-05-28T10:59:09Z</time></trkpt>
<trkpt lat="46.28842" lon="7.29934"><ele>1919.8</ele><time>2017-05-28T10:59:12Z</time></trkpt>
<trkpt lat="46.28849" lon="7.29939"><ele>1918.6</ele><time>2017-05-28T10:59:13Z</time></trkpt>
<trkpt lat="46.28868" lon="7.29962"><ele>1915.4</ele><time>2017-05-28T10:59:16Z</time></trkpt>
<trkpt lat="46.28874" lon="7.29969"><ele>1914</ele><time>2017-05-28T10:59:17Z</time></trkpt>
<trkpt lat="46.28895" lon="7.29987"><ele>1911</ele><time>2017-05-28T10:59:20Z</time></trkpt>
<trkpt lat="46.28901" lon="7.29993"><ele>1910</ele><time>2017-05-28T10:59:21Z</time></trkpt>
<trkpt lat="46.28912" lon="7.30017"><ele>1907.8</ele><time>2017-05-28T10:59:24Z</time></trkpt>
<trkpt lat="46.28912" lon="7.30046"><ele>1905.4</ele><time>2017-05-28T10:59:27Z</time></trkpt>
<trkpt lat="46.28902" lon="7.30071"><ele>1902.8</ele><time>2017-05-28T10:59:30Z</time></trkpt>
<trkpt lat="46.28891" lon="7.30096"><ele>1900.4</ele><time>2017-05-28T10:59:33Z</time></trkpt>
<trkpt lat="46.28884" lon="7.30124"><ele>1898.2</ele><time>2017-05-28T10:59:36Z</time></trkpt>
<trkpt lat="46.2888" lon="7.30153"><ele>1896</ele><time>2017-05-28T10:59:39Z</time></trkpt>
<trkpt lat="46.28878" lon="7.30162"><ele>1895</ele><time>2017-05-28T10:59:40Z</time></trkpt>
<trkpt lat="46.28875" lon="7.30182"><ele>1893</ele><time>2017-05-28T10:59:42Z</time></trkpt>
<trkpt lat="46.28871" lon="7.30207"><ele>1890.6</ele><time>2017-05-28T10:59:45Z</time></trkpt>
<trkpt lat="46.28876" lon="7.30235"><ele>1888.4</ele><time>2017-05-28T10:59:49Z</time></trkpt>
<trkpt lat="46.28889" lon="7.30255"><ele>1886.4</ele><time>2017-05-28T10:59:52Z</time></trkpt>
<trkpt lat="46.28894" lon="7.30263"><ele>1885.8</ele><time>2017-05-28T10:59:53Z</time></trkpt>
<trkpt lat="46.2891" lon="7.30291"><ele>1883.2</ele><time>2017-05-28T10:59:56Z</time></trkpt>
<trkpt lat="46.28924" lon="7.30323"><ele>1880.4</ele><time>2017-05-28T10:59:59Z</time></trkpt>
<trkpt lat="46.28932" lon="7.30339"><ele>1879</ele><time>2017-05-28T11:00:01Z</time></trkpt>
<trkpt lat="46.28952" lon="7.30348"><ele>1877.8</ele><time>2017-05-28T11:00:05Z</time></trkpt>
<trkpt lat="46.28957" lon="7.3035"><ele>1877.6</ele><time>2017-05-28T11:00:06Z</time></trkpt>
<trkpt lat="46.28964" lon="7.30367"><ele>1876.6</ele><time>2017-05-28T11:00:09Z</time></trkpt>
<trkpt lat="46.28966" lon="7.30374"><ele>1876.2</ele><time>2017-05-28T11:00:11Z</time></trkpt>
<trkpt lat="46.2897" lon="7.30378"><ele>1878.4</ele><time>2017-05-28T11:00:17Z</time></trkpt>
<trkpt lat="46.28969" lon="7.30378"><ele>1878.4</ele><time>2017-05-28T11:00:26Z</time></trkpt>
<trkpt lat="46.28968" lon="7.30379"><ele>1878.2</ele><time>2017-05-28T11:00:39Z</time></trkpt>
<trkpt lat="46.28967" lon="7.30378"><ele>1877.8</ele><time>2017-05-28T11:00:55Z</time></trkpt>
<trkpt lat="46.28967" lon="7.30378"><ele>1877.8</ele><time>2017-05-28T11:00:59Z</time></trkpt>
<trkpt lat="46.28967" lon="7.30376"><ele>1877.6</ele><time>2017-05-28T11:01:12Z</time></trkpt>
<trkpt lat="46.28967" lon="7.30373"><ele>1876.6</ele><time>2017-05-28T11:01:32Z</time></trkpt>
<trkpt lat="46.28967" lon="7.30372"><ele>1876.6</ele><time>2017-05-28T11:01:36Z</time></trkpt>
<trkpt lat="46.28966" lon="7.30372"><ele>1876.6</ele><time>2017-05-28T11:01:37Z</time></trkpt>
<trkpt lat="46.28966" lon="7.30372"><ele>1877.2</ele><time>2017-05-28T11:01:40Z</time></trkpt>
<trkpt lat="46.28966" lon="7.30372"><ele>1876.6</ele><time>2017-05-28T11:01:48Z</time></trkpt>
<trkpt lat="46.28966" lon="7.30372"><ele>1876.6</ele><time>2017-05-28T11:01:49Z</time></trkpt>
<trkpt lat="46.28966" lon="7.30372"><ele>1876.2</ele><time>2017-05-28T11:01:53Z</time></trkpt>
<trkpt lat="46.28964" lon="7.30377"><ele>1875.6</ele><time>2017-05-28T11:01:56Z</time></trkpt>
<trkpt lat="46.28956" lon="7.30395"><ele>1873.6</ele><time>2017-05-28T11:02:01Z</time></trkpt>
<trkpt lat="46.28954" lon="7.30401"><ele>1873.2</ele><time>2017-05-28T11:02:02Z</time></trkpt>
<trkpt lat="46.28951" lon="7.30423"><ele>1871.6</ele><time>2017-05-28T11:02:05Z</time></trkpt>
<trkpt lat="46.28953" lon="7.30453"><ele>1869.4</ele><time>2017-05-28T11:02:09Z</time></trkpt>
<trkpt lat="46.28962" lon="7.30476"><ele>1867.2</ele><time>2017-05-28T11:02:12Z</time></trkpt>
<trkpt lat="46.28973" lon="7.30505"><ele>1864.6</ele><time>2017-05-28T11:02:15Z</time></trkpt>
<trkpt lat="46.28983" lon="7.30536"><ele>1862.2</ele><time>2017-05-28T11:02:18Z</time></trkpt>
<trkpt lat="46.28991" lon="7.30558"><ele>1860.4</ele><time>2017-05-28T11:02:21Z</time></trkpt>
<trkpt lat="46.29006" lon="7.30571"><ele>1858.6</ele><time>2017-05-28T11:02:25Z</time></trkpt>
<trkpt lat="46.29017" lon="7.30571"><ele>1857.6</ele><time>2017-05-28T11:02:27Z</time></trkpt>
<trkpt lat="46.29036" lon="7.30568"><ele>1855.6</ele><time>2017-05-28T11:02:30Z</time></trkpt>
<trkpt lat="46.29057" lon="7.30565"><ele>1853</ele><time>2017-05-28T11:02:33Z</time></trkpt>
<trkpt lat="46.2907" lon="7.30566"><ele>1851.4</ele><time>2017-05-28T11:02:35Z</time></trkpt>
<trkpt lat="46.29084" lon="7.30569"><ele>1850.2</ele><time>2017-05-28T11:02:37Z</time></trkpt>
<trkpt lat="46.29096" lon="7.30579"><ele>1848.8</ele><time>2017-05-28T11:02:39Z</time></trkpt>
<trkpt lat="46.29106" lon="7.30607"><ele>1846</ele><time>2017-05-28T11:02:42Z</time></trkpt>
<trkpt lat="46.2911" lon="7.30629"><ele>1844.6</ele><time>2017-05-28T11:02:44Z</time></trkpt>
<trkpt lat="46.29116" lon="7.3066"><ele>1841.8</ele><time>2017-05-28T11:02:47Z</time></trkpt>
<trkpt lat="46.29129" lon="7.30682"><ele>1840.4</ele><time>2017-05-28T11:02:50Z</time></trkpt>
<trkpt lat="46.29133" lon="7.30711"><ele>1838.4</ele><time>2017-05-28T11:02:53Z</time></trkpt>
<trkpt lat="46.29133" lon="7.30721"><ele>1837.4</ele><time>2017-05-28T11:02:54Z</time></trkpt>
<trkpt lat="46.29132" lon="7.3073"><ele>1836.8</ele><time>2017-05-28T11:02:55Z</time></trkpt>
<trkpt lat="46.2913" lon="7.30745"><ele>1835.8</ele><time>2017-05-28T11:02:57Z</time></trkpt>
<trkpt lat="46.29143" lon="7.3077"><ele>1833.4</ele><time>2017-05-28T11:03:01Z</time></trkpt>
<trkpt lat="46.29157" lon="7.30787"><ele>1831.8</ele><time>2017-05-28T11:03:04Z</time></trkpt>
<trkpt lat="46.29172" lon="7.308"><ele>1829.6</ele><time>2017-05-28T11:03:07Z</time></trkpt>
<trkpt lat="46.2919" lon="7.30801"><ele>1828</ele><time>2017-05-28T11:03:10Z</time></trkpt>
<trkpt lat="46.29207" lon="7.30797"><ele>1827</ele><time>2017-05-28T11:03:13Z</time></trkpt>
<trkpt lat="46.29224" lon="7.30812"><ele>1826</ele><time>2017-05-28T11:03:16Z</time></trkpt>
<trkpt lat="46.29235" lon="7.30838"><ele>1825</ele><time>2017-05-28T11:03:19Z</time></trkpt>
<trkpt lat="46.29238" lon="7.30847"><ele>1824.6</ele><time>2017-05-28T11:03:20Z</time></trkpt>
<trkpt lat="46.29245" lon="7.30871"><ele>1822.8</ele><time>2017-05-28T11:03:23Z</time></trkpt>
<trkpt lat="46.29265" lon="7.30872"><ele>1820.4</ele><time>2017-05-28T11:03:27Z</time></trkpt>
<trkpt lat="46.29278" lon="7.30869"><ele>1819.4</ele><time>2017-05-28T11:03:29Z</time></trkpt>
<trkpt lat="46.29302" lon="7.30866"><ele>1816.2</ele><time>2017-05-28T11:03:32Z</time></trkpt>
<trkpt lat="46.29324" lon="7.3086"><ele>1814.2</ele><time>2017-05-28T11:03:35Z</time></trkpt>
<trkpt lat="46.29346" lon="7.30863"><ele>1812.2</ele><time>2017-05-28T11:03:38Z</time></trkpt>
<trkpt lat="46.29369" lon="7.30868"><ele>1810</ele><time>2017-05-28T11:03:41Z</time></trkpt>
<trkpt lat="46.29376" lon="7.30873"><ele>1808.4</ele><time>2017-05-28T11:03:42Z</time></trkpt>
<trkpt lat="46.29394" lon="7.309"><ele>1807.6</ele><time>2017-05-28T11:03:45Z</time></trkpt>
<trkpt lat="46.29399" lon="7.3091"><ele>1807</ele><time>2017-05-28T11:03:46Z</time></trkpt>
<trkpt lat="46.29415" lon="7.30937"><ele>1805</ele><time>2017-05-28T11:03:49Z</time></trkpt>
<trkpt lat="46.29425" lon="7.30951"><ele>1803.8</ele><time>2017-05-28T11:03:51Z</time></trkpt>
<trkpt lat="46.2943" lon="7.30957"><ele>1803</ele><time>2017-05-28T11:03:52Z</time></trkpt>
<trkpt lat="46.29452" lon="7.30973"><ele>1800.6</ele><time>2017-05-28T11:03:55Z</time></trkpt>
<trkpt lat="46.29465" lon="7.30989"><ele>1799.4</ele><time>2017-05-28T11:03:57Z</time></trkpt>
<trkpt lat="46.29482" lon="7.31016"><ele>1798</ele><time>2017-05-28T11:04:00Z</time></trkpt>
<trkpt lat="46.29492" lon="7.31033"><ele>1797.8</ele><time>2017-05-28T11:04:02Z</time></trkpt>
<trkpt lat="46.29502" lon="7.31054"><ele>1797.2</ele><time>2017-05-28T11:04:05Z</time></trkpt>
<trkpt lat="46.29508" lon="7.31067"><ele>1796.4</ele><time>2017-05-28T11:04:08Z</time></trkpt>
<trkpt lat="46.29491" lon="7.31077"><ele>1795</ele><time>2017-05-28T11:04:14Z</time></trkpt>
<trkpt lat="46.29487" lon="7.31075"><ele>1794.6</ele><time>2017-05-28T11:04:15Z</time></trkpt>
<trkpt lat="46.29478" lon="7.3107"><ele>1793.4</ele><time>2017-05-28T11:04:17Z</time></trkpt>
<trkpt lat="46.29462" lon="7.31064"><ele>1791.2</ele><time>2017-05-28T11:04:20Z</time></trkpt>
<trkpt lat="46.29441" lon="7.31052"><ele>1787.8</ele><time>2017-05-28T11:04:23Z</time></trkpt>
<trkpt lat="46.2942" lon="7.31041"><ele>1785</ele><time>2017-05-28T11:04:26Z</time></trkpt>
<trkpt lat="46.29398" lon="7.31026"><ele>1783.6</ele><time>2017-05-28T11:04:29Z</time></trkpt>
<trkpt lat="46.29378" lon="7.3102"><ele>1781</ele><time>2017-05-28T11:04:32Z</time></trkpt>
<trkpt lat="46.29373" lon="7.3102"><ele>1780.6</ele><time>2017-05-28T11:04:33Z</time></trkpt>
<trkpt lat="46.29368" lon="7.3102"><ele>1780</ele><time>2017-05-28T11:04:34Z</time></trkpt>
<trkpt lat="46.29355" lon="7.31024"><ele>1778</ele><time>2017-05-28T11:04:37Z</time></trkpt>
<trkpt lat="46.29333" lon="7.3102"><ele>1775.6</ele><time>2017-05-28T11:04:41Z</time></trkpt>
<trkpt lat="46.29312" lon="7.31025"><ele>1773.4</ele><time>2017-05-28T11:04:44Z</time></trkpt>
<trkpt lat="46.2929" lon="7.31028"><ele>1770.6</ele><time>2017-05-28T11:04:47Z</time></trkpt>
<trkpt lat="46.29272" lon="7.3103"><ele>1769</ele><time>2017-05-28T11:04:49Z</time></trkpt>
<trkpt lat="46.29264" lon="7.31031"><ele>1768.4</ele><time>2017-05-28T11:04:50Z</time></trkpt>
<trkpt lat="46.29242" lon="7.3103"><ele>1766</ele><time>2017-05-28T11:04:53Z</time></trkpt>
<trkpt lat="46.29236" lon="7.31028"><ele>1765.6</ele><time>2017-05-28T11:04:54Z</time></trkpt>
<trkpt lat="46.2922" lon="7.31016"><ele>1763.6</ele><time>2017-05-28T11:04:57Z</time></trkpt>
<trkpt lat="46.29203" lon="7.31002"><ele>1762</ele><time>2017-05-28T11:05:00Z</time></trkpt>
<trkpt lat="46.29185" lon="7.3101"><ele>1760.2</ele><time>2017-05-28T11:05:03Z</time></trkpt>
<trkpt lat="46.29173" lon="7.31037"><ele>1757.6</ele><time>2017-05-28T11:05:07Z</time></trkpt>
<trkpt lat="46.29172" lon="7.31046"><ele>1757</ele><time>2017-05-28T11:05:08Z</time></trkpt>
<trkpt lat="46.2917" lon="7.31053"><ele>1756.4</ele><time>2017-05-28T11:05:09Z</time></trkpt>
<trkpt lat="46.29152" lon="7.31057"><ele>1752.8</ele><time>2017-05-28T11:05:13Z</time></trkpt>
<trkpt lat="46.29145" lon="7.31055"><ele>1752</ele><time>2017-05-28T11:05:14Z</time></trkpt>
<trkpt lat="46.29124" lon="7.31056"><ele>1749.6</ele><time>2017-05-28T11:05:17Z</time></trkpt>
<trkpt lat="46.29099" lon="7.31056"><ele>1747</ele><time>2017-05-28T11:05:20Z</time></trkpt>
<trkpt lat="46.29077" lon="7.31055"><ele>1744.8</ele><time>2017-05-28T11:05:23Z</time></trkpt>
<trkpt lat="46.2907" lon="7.31054"><ele>1743.8</ele><time>2017-05-28T11:05:24Z</time></trkpt>
<trkpt lat="46.29046" lon="7.31044"><ele>1739.8</ele><time>2017-05-28T11:05:27Z</time></trkpt>
<trkpt lat="46.29028" lon="7.31043"><ele>1737.6</ele><time>2017-05-28T11:05:29Z</time></trkpt>
<trkpt lat="46.29008" lon="7.31042"><ele>1735.2</ele><time>2017-05-28T11:05:31Z</time></trkpt>
<trkpt lat="46.28988" lon="7.31039"><ele>1731.8</ele><time>2017-05-28T11:05:33Z</time></trkpt>
<trkpt lat="46.28969" lon="7.3104"><ele>1729.6</ele><time>2017-05-28T11:05:35Z</time></trkpt>
<trkpt lat="46.28952" lon="7.31044"><ele>1727.6</ele><time>2017-05-28T11:05:37Z</time></trkpt>
<trkpt lat="46.2894" lon="7.31051"><ele>1725.8</ele><time>2017-05-28T11:05:39Z</time></trkpt>
<trkpt lat="46.28935" lon="7.31053"><ele>1725</ele><time>2017-05-28T11:05:40Z</time></trkpt>
<trkpt lat="46.28916" lon="7.31054"><ele>1722.2</ele><time>2017-05-28T11:05:43Z</time></trkpt>
<trkpt lat="46.28902" lon="7.3105"><ele>1720.2</ele><time>2017-05-28T11:05:45Z</time></trkpt>
<trkpt lat="46.28894" lon="7.31047"><ele>1719</ele><time>2017-05-28T11:05:46Z</time></trkpt>
<trkpt lat="46.28872" lon="7.31037"><ele>1715.2</ele><time>2017-05-28T11:05:49Z</time></trkpt>
<trkpt lat="46.28866" lon="7.31035"><ele>1714.4</ele><time>2017-05-28T11:05:50Z</time></trkpt>
<trkpt lat="46.28862" lon="7.31033"><ele>1713.6</ele><time>2017-05-28T11:05:51Z</time></trkpt>
<trkpt lat="46.28843" lon="7.31026"><ele>1711</ele><time>2017-05-28T11:05:55Z</time></trkpt>
<trkpt lat="46.28823" lon="7.31017"><ele>1709</ele><time>2017-05-28T11:05:58Z</time></trkpt>
<trkpt lat="46.288" lon="7.31005"><ele>1706.6</ele><time>2017-05-28T11:06:01Z</time></trkpt>
<trkpt lat="46.2878" lon="7.30993"><ele>1704.6</ele><time>2017-05-28T11:06:04Z</time></trkpt>
<trkpt lat="46.28774" lon="7.30988"><ele>1704</ele><time>2017-05-28T11:06:05Z</time></trkpt>
<trkpt lat="46.28755" lon="7.30963"><ele>1700.8</ele><time>2017-05-28T11:06:08Z</time></trkpt>
<trkpt lat="46.28742" lon="7.30942"><ele>1699.4</ele><time>2017-05-28T11:06:10Z</time></trkpt>
<trkpt lat="46.28736" lon="7.30931"><ele>1698.4</ele><time>2017-05-28T11:06:11Z</time></trkpt>
<trkpt lat="46.28731" lon="7.30921"><ele>1697.6</ele><time>2017-05-28T11:06:12Z</time></trkpt>
<trkpt lat="46.28716" lon="7.30896"><ele>1694.4</ele><time>2017-05-28T11:06:15Z</time></trkpt>
<trkpt lat="46.28695" lon="7.30882"><ele>1691.4</ele><time>2017-05-28T11:06:18Z</time></trkpt>
<trkpt lat="46.28675" lon="7.30865"><ele>1689.4</ele><time>2017-05-28T11:06:21Z</time></trkpt>
<trkpt lat="46.28662" lon="7.30851"><ele>1688</ele><time>2017-05-28T11:06:24Z</time></trkpt>
<trkpt lat="46.28665" lon="7.30874"><ele>1686.4</ele><time>2017-05-28T11:06:29Z</time></trkpt>
<trkpt lat="46.2867" lon="7.30881"><ele>1686.2</ele><time>2017-05-28T11:06:30Z</time></trkpt>
<trkpt lat="46.28688" lon="7.30905"><ele>1684.2</ele><time>2017-05-28T11:06:33Z</time></trkpt>
<trkpt lat="46.28696" lon="7.3093"><ele>1682.6</ele><time>2017-05-28T11:06:35Z</time></trkpt>
<trkpt lat="46.28704" lon="7.30959"><ele>1681</ele><time>2017-05-28T11:06:37Z</time></trkpt>
<trkpt lat="46.28708" lon="7.30974"><ele>1679.8</ele><time>2017-05-28T11:06:38Z</time></trkpt>
<trkpt lat="46.28716" lon="7.31004"><ele>1678</ele><time>2017-05-28T11:06:40Z</time></trkpt>
<trkpt lat="46.2872" lon="7.31018"><ele>1677.2</ele><time>2017-05-28T11:06:41Z</time></trkpt>
<trkpt lat="46.28726" lon="7.31044"><ele>1675.6</ele><time>2017-05-28T11:06:43Z</time></trkpt>
<trkpt lat="46.28729" lon="7.31057"><ele>1674.6</ele><time>2017-05-28T11:06:44Z</time></trkpt>
<trkpt lat="46.28739" lon="7.31079"><ele>1672.8</ele><time>2017-05-28T11:06:46Z</time></trkpt>
<trkpt lat="46.28745" lon="7.31091"><ele>1671.4</ele><time>2017-05-28T11:06:47Z</time></trkpt>
<trkpt lat="46.28755" lon="7.31115"><ele>1669.4</ele><time>2017-05-28T11:06:49Z</time></trkpt>
<trkpt lat="46.28764" lon="7.3114"><ele>1666.8</ele><time>2017-05-28T11:06:51Z</time></trkpt>
<trkpt lat="46.2877" lon="7.31166"><ele>1664.6</ele><time>2017-05-28T11:06:53Z</time></trkpt>
<trkpt lat="46.28777" lon="7.31192"><ele>1662.4</ele><time>2017-05-28T11:06:55Z</time></trkpt>
<trkpt lat="46.28785" lon="7.31215"><ele>1660.6</ele><time>2017-05-28T11:06:57Z</time></trkpt>
<trkpt lat="46.28795" lon="7.31238"><ele>1658.2</ele><time>2017-05-28T11:06:59Z</time></trkpt>
<trkpt lat="46.28807" lon="7.31258"><ele>1656.6</ele><time>2017-05-28T11:07:01Z</time></trkpt>
<trkpt lat="46.28812" lon="7.31267"><ele>1656.2</ele><time>2017-05-28T11:07:02Z</time></trkpt>
<trkpt lat="46.28817" lon="7.31276"><ele>1655.4</ele><time>2017-05-28T11:07:03Z</time></trkpt>
<trkpt lat="46.28826" lon="7.31294"><ele>1654.2</ele><time>2017-05-28T11:07:05Z</time></trkpt>
<trkpt lat="46.28844" lon="7.3131"><ele>1651</ele><time>2017-05-28T11:07:08Z</time></trkpt>
<trkpt lat="46.28861" lon="7.31312"><ele>1648.2</ele><time>2017-05-28T11:07:10Z</time></trkpt>
<trkpt lat="46.2887" lon="7.31314"><ele>1647.2</ele><time>2017-05-28T11:07:11Z</time></trkpt>
<trkpt lat="46.28889" lon="7.31321"><ele>1644</ele><time>2017-05-28T11:07:13Z</time></trkpt>
<trkpt lat="46.28907" lon="7.3133"><ele>1642.2</ele><time>2017-05-28T11:07:15Z</time></trkpt>
<trkpt lat="46.28915" lon="7.31336"><ele>1641.4</ele><time>2017-05-28T11:07:16Z</time></trkpt>
<trkpt lat="46.28927" lon="7.31365"><ele>1637.6</ele><time>2017-05-28T11:07:19Z</time></trkpt>
<trkpt lat="46.28926" lon="7.31388"><ele>1634.4</ele><time>2017-05-28T11:07:21Z</time></trkpt>
<trkpt lat="46.28926" lon="7.31399"><ele>1633.2</ele><time>2017-05-28T11:07:22Z</time></trkpt>
<trkpt lat="46.28936" lon="7.31426"><ele>1630.6</ele><time>2017-05-28T11:07:25Z</time></trkpt>
<trkpt lat="46.28949" lon="7.31439"><ele>1628.2</ele><time>2017-05-28T11:07:27Z</time></trkpt>
<trkpt lat="46.28957" lon="7.31445"><ele>1627.2</ele><time>2017-05-28T11:07:28Z</time></trkpt>
<trkpt lat="46.28974" lon="7.31456"><ele>1624.4</ele><time>2017-05-28T11:07:30Z</time></trkpt>
<trkpt lat="46.28991" lon="7.31467"><ele>1622</ele><time>2017-05-28T11:07:32Z</time></trkpt>
<trkpt lat="46.28998" lon="7.31471"><ele>1620.6</ele><time>2017-05-28T11:07:33Z</time></trkpt>
<trkpt lat="46.29018" lon="7.31472"><ele>1617</ele><time>2017-05-28T11:07:36Z</time></trkpt>
<trkpt lat="46.29024" lon="7.3148"><ele>1614.2</ele><time>2017-05-28T11:07:39Z</time></trkpt>
<trkpt lat="46.29007" lon="7.31485"><ele>1609.6</ele><time>2017-05-28T11:07:43Z</time></trkpt>
<trkpt lat="46.29001" lon="7.31484"><ele>1608.4</ele><time>2017-05-28T11:07:44Z</time></trkpt>
<trkpt lat="46.28978" lon="7.3148"><ele>1606</ele><time>2017-05-28T11:07:47Z</time></trkpt>
<trkpt lat="46.28962" lon="7.31476"><ele>1605.2</ele><time>2017-05-28T11:07:49Z</time></trkpt>
<trkpt lat="46.28939" lon="7.3148"><ele>1602.8</ele><time>2017-05-28T11:07:52Z</time></trkpt>
<trkpt lat="46.28932" lon="7.31483"><ele>1602</ele><time>2017-05-28T11:07:53Z</time></trkpt>
<trkpt lat="46.2891" lon="7.31488"><ele>1599.2</ele><time>2017-05-28T11:07:56Z</time></trkpt>
<trkpt lat="46.28904" lon="7.31488"><ele>1598.8</ele><time>2017-05-28T11:07:57Z</time></trkpt>
<trkpt lat="46.28882" lon="7.31481"><ele>1597</ele><time>2017-05-28T11:08:00Z</time></trkpt>
<trkpt lat="46.28875" lon="7.31477"><ele>1596.2</ele><time>2017-05-28T11:08:01Z</time></trkpt>
<trkpt lat="46.28853" lon="7.31459"><ele>1593.4</ele><time>2017-05-28T11:08:04Z</time></trkpt>
<trkpt lat="46.28841" lon="7.31451"><ele>1592.2</ele><time>2017-05-28T11:08:06Z</time></trkpt>
<trkpt lat="46.28824" lon="7.31461"><ele>1590</ele><time>2017-05-28T11:08:09Z</time></trkpt>
<trkpt lat="46.28805" lon="7.31477"><ele>1587.6</ele><time>2017-05-28T11:08:12Z</time></trkpt>
<trkpt lat="46.28787" lon="7.3149"><ele>1585.2</ele><time>2017-05-28T11:08:15Z</time></trkpt>
<trkpt lat="46.28781" lon="7.31492"><ele>1583.8</ele><time>2017-05-28T11:08:16Z</time></trkpt>
<trkpt lat="46.28763" lon="7.31488"><ele>1579.4</ele><time>2017-05-28T11:08:19Z</time></trkpt>
<trkpt lat="46.28755" lon="7.31484"><ele>1578.2</ele><time>2017-05-28T11:08:20Z</time></trkpt>
<trkpt lat="46.28731" lon="7.31474"><ele>1575.2</ele><time>2017-05-28T11:08:23Z</time></trkpt>
<trkpt lat="46.28706" lon="7.31463"><ele>1572.2</ele><time>2017-05-28T11:08:26Z</time></trkpt>
<trkpt lat="46.28682" lon="7.31455"><ele>1569.8</ele><time>2017-05-28T11:08:29Z</time></trkpt>
<trkpt lat="46.28668" lon="7.31448"><ele>1568</ele><time>2017-05-28T11:08:31Z</time></trkpt>
<trkpt lat="46.28651" lon="7.31429"><ele>1566.4</ele><time>2017-05-28T11:08:34Z</time></trkpt>
<trkpt lat="46.28642" lon="7.3141"><ele>1564.4</ele><time>2017-05-28T11:08:36Z</time></trkpt>
<trkpt lat="46.28636" lon="7.31401"><ele>1563.4</ele><time>2017-05-28T11:08:37Z</time></trkpt>
<trkpt lat="46.2862" lon="7.31376"><ele>1561</ele><time>2017-05-28T11:08:40Z</time></trkpt>
<trkpt lat="46.28607" lon="7.31359"><ele>1558</ele><time>2017-05-28T11:08:44Z</time></trkpt>
<trkpt lat="46.28608" lon="7.31378"><ele>1556</ele><time>2017-05-28T11:08:47Z</time></trkpt>
<trkpt lat="46.2861" lon="7.31387"><ele>1555</ele><time>2017-05-28T11:08:48Z</time></trkpt>
<trkpt lat="46.28612" lon="7.31397"><ele>1554.4</ele><time>2017-05-28T11:08:49Z</time></trkpt>
<trkpt lat="46.28619" lon="7.3143"><ele>1551.8</ele><time>2017-05-28T11:08:52Z</time></trkpt>
<trkpt lat="46.28622" lon="7.31465"><ele>1549.4</ele><time>2017-05-28T11:08:55Z</time></trkpt>
<trkpt lat="46.28625" lon="7.31494"><ele>1547.4</ele><time>2017-05-28T11:08:58Z</time></trkpt>
<trkpt lat="46.28636" lon="7.31518"><ele>1545.6</ele><time>2017-05-28T11:09:01Z</time></trkpt>
<trkpt lat="46.28651" lon="7.31538"><ele>1544.4</ele><time>2017-05-28T11:09:04Z</time></trkpt>
<trkpt lat="46.28639" lon="7.3155"><ele>1540.6</ele><time>2017-05-28T11:09:09Z</time></trkpt>
<trkpt lat="46.28633" lon="7.31545"><ele>1539</ele><time>2017-05-28T11:09:10Z</time></trkpt>
<trkpt lat="46.28627" lon="7.3154"><ele>1537.6</ele><time>2017-05-28T11:09:11Z</time></trkpt>
<trkpt lat="46.28606" lon="7.31515"><ele>1533.6</ele><time>2017-05-28T11:09:14Z</time></trkpt>
<trkpt lat="46.28599" lon="7.31504"><ele>1532.4</ele><time>2017-05-28T11:09:15Z</time></trkpt>
<trkpt lat="46.28585" lon="7.31481"><ele>1530</ele><time>2017-05-28T11:09:17Z</time></trkpt>
<trkpt lat="46.28571" lon="7.31459"><ele>1527.6</ele><time>2017-05-28T11:09:19Z</time></trkpt>
<trkpt lat="46.28559" lon="7.31437"><ele>1525.6</ele><time>2017-05-28T11:09:21Z</time></trkpt>
<trkpt lat="46.28549" lon="7.31413"><ele>1523.6</ele><time>2017-05-28T11:09:23Z</time></trkpt>
<trkpt lat="46.28544" lon="7.314"><ele>1522.6</ele><time>2017-05-28T11:09:24Z</time></trkpt>
<trkpt lat="46.2854" lon="7.31387"><ele>1521.4</ele><time>2017-05-28T11:09:25Z</time></trkpt>
<trkpt lat="46.28533" lon="7.31361"><ele>1519.4</ele><time>2017-05-28T11:09:27Z</time></trkpt>
<trkpt lat="46.28529" lon="7.31335"><ele>1517.2</ele><time>2017-05-28T11:09:29Z</time></trkpt>
<trkpt lat="46.28526" lon="7.31308"><ele>1515</ele><time>2017-05-28T11:09:31Z</time></trkpt>
<trkpt lat="46.28513" lon="7.31287"><ele>1513.4</ele><time>2017-05-28T11:09:33Z</time></trkpt>
<trkpt lat="46.28495" lon="7.31271"><ele>1511.2</ele><time>2017-05-28T11:09:35Z</time></trkpt>
<trkpt lat="46.28478" lon="7.31257"><ele>1509</ele><time>2017-05-28T11:09:37Z</time></trkpt>
<trkpt lat="46.28471" lon="7.31251"><ele>1508.2</ele><time>2017-05-28T11:09:38Z</time></trkpt>
<trkpt lat="46.28464" lon="7.31245"><ele>1507.2</ele><time>2017-05-28T11:09:39Z</time></trkpt>
<trkpt lat="46.28458" lon="7.31239"><ele>1506.4</ele><time>2017-05-28T11:09:40Z</time></trkpt>
<trkpt lat="46.28445" lon="7.31211"><ele>1503.6</ele><time>2017-05-28T11:09:43Z</time></trkpt>
<trkpt lat="46.28431" lon="7.31182"><ele>1501.2</ele><time>2017-05-28T11:09:46Z</time></trkpt>
<trkpt lat="46.28411" lon="7.31163"><ele>1498.8</ele><time>2017-05-28T11:09:49Z</time></trkpt>
<trkpt lat="46.28405" lon="7.31158"><ele>1497.8</ele><time>2017-05-28T11:09:50Z</time></trkpt>
<trkpt lat="46.28395" lon="7.31149"><ele>1496</ele><time>2017-05-28T11:09:52Z</time></trkpt>
<trkpt lat="46.28391" lon="7.31148"><ele>1495</ele><time>2017-05-28T11:09:53Z</time></trkpt>
<trkpt lat="46.28377" lon="7.31163"><ele>1491.4</ele><time>2017-05-28T11:10:01Z</time></trkpt>
<trkpt lat="46.28353" lon="7.3116"><ele>1488.6</ele><time>2017-05-28T11:10:05Z</time></trkpt>
<trkpt lat="46.28328" lon="7.31155"><ele>1485</ele><time>2017-05-28T11:10:08Z</time></trkpt>
<trkpt lat="46.28303" lon="7.31152"><ele>1482</ele><time>2017-05-28T11:10:11Z</time></trkpt>
<trkpt lat="46.28295" lon="7.3115"><ele>1481</ele><time>2017-05-28T11:10:12Z</time></trkpt>
<trkpt lat="46.28275" lon="7.31135"><ele>1478.2</ele><time>2017-05-28T11:10:15Z</time></trkpt>
<trkpt lat="46.28268" lon="7.31129"><ele>1477.6</ele><time>2017-05-28T11:10:16Z</time></trkpt>
<trkpt lat="46.28253" lon="7.31125"><ele>1476.2</ele><time>2017-05-28T11:10:18Z</time></trkpt>
<trkpt lat="46.28246" lon="7.31126"><ele>1475.6</ele><time>2017-05-28T11:10:19Z</time></trkpt>
<trkpt lat="46.28227" lon="7.3112"><ele>1473</ele><time>2017-05-28T11:10:23Z</time></trkpt>
<trkpt lat="46.2822" lon="7.31095"><ele>1469.8</ele><time>2017-05-28T11:10:27Z</time></trkpt>
<trkpt lat="46.2822" lon="7.31087"><ele>1468.6</ele><time>2017-05-28T11:10:28Z</time></trkpt>
<trkpt lat="46.2822" lon="7.31071"><ele>1467.8</ele><time>2017-05-28T11:10:30Z</time></trkpt>
<trkpt lat="46.2822" lon="7.31061"><ele>1467</ele><time>2017-05-28T11:10:33Z</time></trkpt>
<trkpt lat="46.2822" lon="7.31059"><ele>1466.6</ele><time>2017-05-28T11:10:34Z</time></trkpt>
<trkpt lat="46.2822" lon="7.31054"><ele>1466</ele><time>2017-05-28T11:10:36Z</time></trkpt>
<trkpt lat="46.28219" lon="7.31046"><ele>1465</ele><time>2017-05-28T11:10:38Z</time></trkpt>
<trkpt lat="46.28219" lon="7.3104"><ele>1464.4</ele><time>2017-05-28T11:10:39Z</time></trkpt>
<trkpt lat="46.28218" lon="7.31023"><ele>1463.4</ele><time>2017-05-28T11:10:41Z</time></trkpt>
<trkpt lat="46.28217" lon="7.30993"><ele>1461.8</ele><time>2017-05-28T11:10:44Z</time></trkpt>
<trkpt lat="46.28219" lon="7.30984"><ele>1461.4</ele><time>2017-05-28T11:10:45Z</time></trkpt>
<trkpt lat="46.28222" lon="7.30975"><ele>1460.8</ele><time>2017-05-28T11:10:46Z</time></trkpt>
<trkpt lat="46.28224" lon="7.30967"><ele>1460.4</ele><time>2017-05-28T11:10:47Z</time></trkpt>
<trkpt lat="46.28231" lon="7.30942"><ele>1458.8</ele><time>2017-05-28T11:10:50Z</time></trkpt>
<trkpt lat="46.28237" lon="7.30914"><ele>1457.6</ele><time>2017-05-28T11:10:54Z</time></trkpt>
<trkpt lat="46.28241" lon="7.30899"><ele>1457.4</ele><time>2017-05-28T11:10:57Z</time></trkpt>
<trkpt lat="46.28243" lon="7.30895"><ele>1457.2</ele><time>2017-05-28T11:10:58Z</time></trkpt>
<trkpt lat="46.28245" lon="7.30886"><ele>1456.6</ele><time>2017-05-28T11:11:00Z</time></trkpt>
<trkpt lat="46.28248" lon="7.30876"><ele>1457</ele><time>2017-05-28T11:11:04Z</time></trkpt>
<trkpt lat="46.28253" lon="7.30864"><ele>1455.8</ele><time>2017-05-28T11:11:10Z</time></trkpt>
<trkpt lat="46.28258" lon="7.30847"><ele>1455.2</ele><time>2017-05-28T11:11:17Z</time></trkpt>
<trkpt lat="46.28259" lon="7.30844"><ele>1455.4</ele><time>2017-05-28T11:11:18Z</time></trkpt>
<trkpt lat="46.2826" lon="7.3084"><ele>1456</ele><time>2017-05-28T11:11:19Z</time></trkpt>
<trkpt lat="46.28261" lon="7.30826"><ele>1458.2</ele><time>2017-05-28T11:11:25Z</time></trkpt>
<trkpt lat="46.28257" lon="7.30816"><ele>1460</ele><time>2017-05-28T11:11:29Z</time></trkpt>
<trkpt lat="46.28242" lon="7.30799"><ele>1465</ele><time>2017-05-28T11:11:37Z</time></trkpt>
<trkpt lat="46.28235" lon="7.30792"><ele>1467</ele><time>2017-05-28T11:11:43Z</time></trkpt>
<trkpt lat="46.2823" lon="7.30789"><ele>1467.6</ele><time>2017-05-28T11:11:49Z</time></trkpt>
<trkpt lat="46.28229" lon="7.30789"><ele>1467.8</ele><time>2017-05-28T11:11:50Z</time></trkpt>
<trkpt lat="46.28227" lon="7.30788"><ele>1468.2</ele><time>2017-05-28T11:11:52Z</time></trkpt>
<trkpt lat="46.28224" lon="7.30788"><ele>1468.2</ele><time>2017-05-28T11:11:54Z</time></trkpt>
<trkpt lat="46.28214" lon="7.30791"><ele>1469.6</ele><time>2017-05-28T11:12:03Z</time></trkpt>
<trkpt lat="46.2821" lon="7.30792"><ele>1469.6</ele><time>2017-05-28T11:12:06Z</time></trkpt>
<trkpt lat="46.28197" lon="7.30792"><ele>1470.6</ele><time>2017-05-28T11:12:18Z</time></trkpt>
<trkpt lat="46.28184" lon="7.30774"><ele>1477.4</ele><time>2017-05-28T11:12:37Z</time></trkpt>
<trkpt lat="46.28184" lon="7.30774"><ele>1477.8</ele><time>2017-05-28T11:12:38Z</time></trkpt>
<trkpt lat="46.28181" lon="7.30764"><ele>1483</ele><time>2017-05-28T11:12:49Z</time></trkpt>
<trkpt lat="46.28176" lon="7.30758"><ele>1485.2</ele><time>2017-05-28T11:12:55Z</time></trkpt>
<trkpt lat="46.28173" lon="7.30753"><ele>1487.6</ele><time>2017-05-28T11:13:02Z</time></trkpt>
<trkpt lat="46.28163" lon="7.30751"><ele>1493.6</ele><time>2017-05-28T11:13:21Z</time></trkpt>
<trkpt lat="46.28159" lon="7.30751"><ele>1495.2</ele><time>2017-05-28T11:13:26Z</time></trkpt>
<trkpt lat="46.28141" lon="7.30756"><ele>1501.6</ele><time>2017-05-28T11:13:51Z</time></trkpt>
<trkpt lat="46.28136" lon="7.30757"><ele>1502.8</ele><time>2017-05-28T11:13:57Z</time></trkpt>
<trkpt lat="46.28132" lon="7.3076"><ele>1504</ele><time>2017-05-28T11:14:03Z</time></trkpt>
<trkpt lat="46.28127" lon="7.30765"><ele>1505.6</ele><time>2017-05-28T11:14:11Z</time></trkpt>
<trkpt lat="46.28118" lon="7.30769"><ele>1507.8</ele><time>2017-05-28T11:14:22Z</time></trkpt>
<trkpt lat="46.28107" lon="7.30774"><ele>1509.8</ele><time>2017-05-28T11:14:34Z</time></trkpt>
<trkpt lat="46.28091" lon="7.30785"><ele>1513.4</ele><time>2017-05-28T11:14:53Z</time></trkpt>
<trkpt lat="46.28076" lon="7.308"><ele>1516</ele><time>2017-05-28T11:15:11Z</time></trkpt>
<trkpt lat="46.28062" lon="7.30796"><ele>1516.4</ele><time>2017-05-28T11:15:22Z</time></trkpt>
<trkpt lat="46.28061" lon="7.3079"><ele>1516.6</ele><time>2017-05-28T11:15:26Z</time></trkpt>
<trkpt lat="46.28063" lon="7.30783"><ele>1516.6</ele><time>2017-05-28T11:15:32Z</time></trkpt>
<trkpt lat="46.28062" lon="7.30764"><ele>1516.6</ele><time>2017-05-28T11:15:44Z</time></trkpt>
<trkpt lat="46.28062" lon="7.30762"><ele>1516.6</ele><time>2017-05-28T11:15:45Z</time></trkpt>
<trkpt lat="46.28064" lon="7.30748"><ele>1516.2</ele><time>2017-05-28T11:15:52Z</time></trkpt>
<trkpt lat="46.28064" lon="7.30738"><ele>1515.8</ele><time>2017-05-28T11:15:56Z</time></trkpt>
<trkpt lat="46.28063" lon="7.30723"><ele>1515.2</ele><time>2017-05-28T11:16:02Z</time></trkpt>
<trkpt lat="46.2806" lon="7.30701"><ele>1515</ele><time>2017-05-28T11:16:10Z</time></trkpt>
<trkpt lat="46.28058" lon="7.30693"><ele>1515.2</ele><time>2017-05-28T11:16:13Z</time></trkpt>
<trkpt lat="46.28055" lon="7.30665"><ele>1515</ele><time>2017-05-28T11:16:21Z</time></trkpt>
<trkpt lat="46.28054" lon="7.30652"><ele>1515.8</ele><time>2017-05-28T11:16:25Z</time></trkpt>
<trkpt lat="46.28051" lon="7.30642"><ele>1516.4</ele><time>2017-05-28T11:16:29Z</time></trkpt>
<trkpt lat="46.28046" lon="7.30631"><ele>1517.2</ele><time>2017-05-28T11:16:35Z</time></trkpt>
<trkpt lat="46.28033" lon="7.30622"><ele>1518</ele><time>2017-05-28T11:16:43Z</time></trkpt>
<trkpt lat="46.2801" lon="7.30626"><ele>1519.4</ele><time>2017-05-28T11:16:59Z</time></trkpt>
<trkpt lat="46.28006" lon="7.30626"><ele>1520</ele><time>2017-05-28T11:17:02Z</time></trkpt>
<trkpt lat="46.27995" lon="7.3061"><ele>1520.6</ele><time>2017-05-28T11:17:15Z</time></trkpt>
<trkpt lat="46.27995" lon="7.3058"><ele>1518.6</ele><time>2017-05-28T11:17:22Z</time></trkpt>
<trkpt lat="46.27992" lon="7.30553"><ele>1518.2</ele><time>2017-05-28T11:17:26Z</time></trkpt>
<trkpt lat="46.27989" lon="7.30524"><ele>1519</ele><time>2017-05-28T11:17:31Z</time></trkpt>
<trkpt lat="46.27989" lon="7.30496"><ele>1519.4</ele><time>2017-05-28T11:17:36Z</time></trkpt>
<trkpt lat="46.27989" lon="7.30491"><ele>1519.2</ele><time>2017-05-28T11:17:37Z</time></trkpt>
<trkpt lat="46.27985" lon="7.30461"><ele>1520.6</ele><time>2017-05-28T11:17:42Z</time></trkpt>
<trkpt lat="46.27979" lon="7.30436"><ele>1521.8</ele><time>2017-05-28T11:17:47Z</time></trkpt>
<trkpt lat="46.27964" lon="7.30403"><ele>1524</ele><time>2017-05-28T11:18:01Z</time></trkpt>
<trkpt lat="46.27958" lon="7.30398"><ele>1524.6</ele><time>2017-05-28T11:18:07Z</time></trkpt>
<trkpt lat="46.27949" lon="7.30401"><ele>1525.4</ele><time>2017-05-28T11:18:15Z</time></trkpt>
<trkpt lat="46.27946" lon="7.30403"><ele>1525.8</ele><time>2017-05-28T11:18:18Z</time></trkpt>
<trkpt lat="46.27937" lon="7.30405"><ele>1527.4</ele><time>2017-05-28T11:18:25Z</time></trkpt>
<trkpt lat="46.27932" lon="7.30401"><ele>1528.4</ele><time>2017-05-28T11:18:29Z</time></trkpt>
<trkpt lat="46.27922" lon="7.3038"><ele>1530.8</ele><time>2017-05-28T11:18:42Z</time></trkpt>
<trkpt lat="46.2791" lon="7.3036"><ele>1534.2</ele><time>2017-05-28T11:18:55Z</time></trkpt>
<trkpt lat="46.27897" lon="7.30339"><ele>1537.4</ele><time>2017-05-28T11:19:09Z</time></trkpt>
<trkpt lat="46.2788" lon="7.30336"><ele>1541.2</ele><time>2017-05-28T11:19:24Z</time></trkpt>
<trkpt lat="46.27875" lon="7.30343"><ele>1543.4</ele><time>2017-05-28T11:19:31Z</time></trkpt>
<trkpt lat="46.27873" lon="7.30346"><ele>1544.2</ele><time>2017-05-28T11:19:34Z</time></trkpt>
<trkpt lat="46.27871" lon="7.30347"><ele>1544.8</ele><time>2017-05-28T11:19:36Z</time></trkpt>
<trkpt lat="46.27867" lon="7.30348"><ele>1545.8</ele><time>2017-05-28T11:19:39Z</time></trkpt>
<trkpt lat="46.27861" lon="7.30351"><ele>1548</ele><time>2017-05-28T11:19:46Z</time></trkpt>
<trkpt lat="46.27855" lon="7.30355"><ele>1550</ele><time>2017-05-28T11:19:52Z</time></trkpt>
<trkpt lat="46.27849" lon="7.30362"><ele>1552.6</ele><time>2017-05-28T11:19:59Z</time></trkpt>
<trkpt lat="46.2784" lon="7.3037"><ele>1554.6</ele><time>2017-05-28T11:20:08Z</time></trkpt>
<trkpt lat="46.27823" lon="7.30366"><ele>1555.8</ele><time>2017-05-28T11:20:22Z</time></trkpt>
<trkpt lat="46.27818" lon="7.30363"><ele>1556</ele><time>2017-05-28T11:20:26Z</time></trkpt>
<trkpt lat="46.27801" lon="7.30352"><ele>1556.6</ele><time>2017-05-28T11:20:40Z</time></trkpt>
<trkpt lat="46.27792" lon="7.30346"><ele>1558</ele><time>2017-05-28T11:20:48Z</time></trkpt>
<trkpt lat="46.2779" lon="7.30342"><ele>1558.6</ele><time>2017-05-28T11:20:51Z</time></trkpt>
<trkpt lat="46.27788" lon="7.30317"><ele>1560</ele><time>2017-05-28T11:21:08Z</time></trkpt>
<trkpt lat="46.27791" lon="7.30295"><ele>1561.4</ele><time>2017-05-28T11:21:21Z</time></trkpt>
<trkpt lat="46.27794" lon="7.3028"><ele>1562.2</ele><time>2017-05-28T11:21:30Z</time></trkpt>
<trkpt lat="46.27795" lon="7.30276"><ele>1562.4</ele><time>2017-05-28T11:21:33Z</time></trkpt>
<trkpt lat="46.27797" lon="7.30268"><ele>1562.6</ele><time>2017-05-28T11:21:38Z</time></trkpt>
<trkpt lat="46.27805" lon="7.30254"><ele>1563</ele><time>2017-05-28T11:21:49Z</time></trkpt>
<trkpt lat="46.27817" lon="7.30243"><ele>1563.6</ele><time>2017-05-28T11:22:02Z</time></trkpt>
<trkpt lat="46.27824" lon="7.30234"><ele>1564.2</ele><time>2017-05-28T11:22:10Z</time></trkpt>
<trkpt lat="46.27825" lon="7.30228"><ele>1564.6</ele><time>2017-05-28T11:22:13Z</time></trkpt>
<trkpt lat="46.27826" lon="7.30225"><ele>1564.6</ele><time>2017-05-28T11:22:15Z</time></trkpt>
<trkpt lat="46.27828" lon="7.30191"><ele>1565.8</ele><time>2017-05-28T11:22:33Z</time></trkpt>
<trkpt lat="46.27832" lon="7.30165"><ele>1566.6</ele><time>2017-05-28T11:22:47Z</time></trkpt>
<trkpt lat="46.27838" lon="7.3014"><ele>1567.8</ele><time>2017-05-28T11:23:01Z</time></trkpt>
<trkpt lat="46.27839" lon="7.30121"><ele>1569.6</ele><time>2017-05-28T11:23:11Z</time></trkpt>
<trkpt lat="46.27838" lon="7.301"><ele>1571.4</ele><time>2017-05-28T11:23:23Z</time></trkpt>
<trkpt lat="46.27841" lon="7.30087"><ele>1572.4</ele><time>2017-05-28T11:23:30Z</time></trkpt>
<trkpt lat="46.27842" lon="7.30086"><ele>1572.6</ele><time>2017-05-28T11:23:31Z</time></trkpt>
<trkpt lat="46.27848" lon="7.3007"><ele>1574</ele><time>2017-05-28T11:23:41Z</time></trkpt>
<trkpt lat="46.27853" lon="7.30043"><ele>1576.2</ele><time>2017-05-28T11:23:56Z</time></trkpt>
<trkpt lat="46.27839" lon="7.30027"><ele>1577.4</ele><time>2017-05-28T11:24:05Z</time></trkpt>
<trkpt lat="46.2782" lon="7.30015"><ele>1577.8</ele><time>2017-05-28T11:24:13Z</time></trkpt>
<trkpt lat="46.27808" lon="7.29988"><ele>1577.2</ele><time>2017-05-28T11:24:18Z</time></trkpt>
<trkpt lat="46.27803" lon="7.29977"><ele>1577.4</ele><time>2017-05-28T11:24:20Z</time></trkpt>
<trkpt lat="46.27802" lon="7.29969"><ele>1577.4</ele><time>2017-05-28T11:24:23Z</time></trkpt>
<trkpt lat="46.278" lon="7.2997"><ele>1577.4</ele><time>2017-05-28T11:24:36Z</time></trkpt>
<trkpt lat="46.278" lon="7.2997"><ele>1577.4</ele><time>2017-05-28T11:24:38Z</time></trkpt>
<trkpt lat="46.27801" lon="7.29971"><ele>1577.4</ele><time>2017-05-28T11:24:41Z</time></trkpt>
<trkpt lat="46.27801" lon="7.29971"><ele>1577.6</ele><time>2017-05-28T11:24:42Z</time></trkpt>
<trkpt lat="46.27801" lon="7.29971"><ele>1577.4</ele><time>2017-05-28T11:24:43Z</time></trkpt>
<trkpt lat="46.27801" lon="7.2997"><ele>1577.2</ele><time>2017-05-28T11:24:49Z</time></trkpt>
<trkpt lat="46.27801" lon="7.2997"><ele>1576.8</ele><time>2017-05-28T11:24:52Z</time></trkpt>
<trkpt lat="46.278" lon="7.29972"><ele>1577.2</ele><time>2017-05-28T11:25:09Z</time></trkpt>
<trkpt lat="46.278" lon="7.29972"><ele>1577.2</ele><time>2017-05-28T11:25:15Z</time></trkpt>
<trkpt lat="46.278" lon="7.29972"><ele>1577</ele><time>2017-05-28T11:25:16Z</time></trkpt>
<trkpt lat="46.278" lon="7.29972"><ele>1577</ele><time>2017-05-28T11:25:18Z</time></trkpt>
<trkpt lat="46.27799" lon="7.29972"><ele>1575.4</ele><time>2017-05-28T11:26:03Z</time></trkpt>
<trkpt lat="46.27798" lon="7.29973"><ele>1575.6</ele><time>2017-05-28T11:26:06Z</time></trkpt>
<trkpt lat="46.27799" lon="7.29973"><ele>1576.6</ele><time>2017-05-28T11:26:27Z</time></trkpt>
<trkpt lat="46.27784" lon="7.29968"><ele>1575.2</ele><time>2017-05-28T11:26:59Z</time></trkpt>
<trkpt lat="46.27766" lon="7.29958"><ele>1572.8</ele><time>2017-05-28T11:27:06Z</time></trkpt>
<trkpt lat="46.27755" lon="7.2995"><ele>1571.4</ele><time>2017-05-28T11:27:11Z</time></trkpt>
<trkpt lat="46.27748" lon="7.29944"><ele>1570.4</ele><time>2017-05-28T11:27:13Z</time></trkpt>
<trkpt lat="46.27744" lon="7.2994"><ele>1569.2</ele><time>2017-05-28T11:27:14Z</time></trkpt>
<trkpt lat="46.27731" lon="7.29914"><ele>1565</ele><time>2017-05-28T11:27:22Z</time></trkpt>
<trkpt lat="46.27723" lon="7.29909"><ele>1564.6</ele><time>2017-05-28T11:27:24Z</time></trkpt>
<trkpt lat="46.27705" lon="7.29905"><ele>1563.2</ele><time>2017-05-28T11:27:27Z</time></trkpt>
<trkpt lat="46.27684" lon="7.29901"><ele>1560</ele><time>2017-05-28T11:27:30Z</time></trkpt>
<trkpt lat="46.27669" lon="7.29899"><ele>1558</ele><time>2017-05-28T11:27:32Z</time></trkpt>
<trkpt lat="46.27662" lon="7.29898"><ele>1556.4</ele><time>2017-05-28T11:27:33Z</time></trkpt>
<trkpt lat="46.27655" lon="7.29896"><ele>1555</ele><time>2017-05-28T11:27:34Z</time></trkpt>
<trkpt lat="46.27634" lon="7.29888"><ele>1552.2</ele><time>2017-05-28T11:27:37Z</time></trkpt>
<trkpt lat="46.27612" lon="7.29874"><ele>1548.4</ele><time>2017-05-28T11:27:40Z</time></trkpt>
<trkpt lat="46.27591" lon="7.2986"><ele>1545.6</ele><time>2017-05-28T11:27:43Z</time></trkpt>
<trkpt lat="46.27572" lon="7.29849"><ele>1542.8</ele><time>2017-05-28T11:27:46Z</time></trkpt>
<trkpt lat="46.27561" lon="7.29841"><ele>1541.2</ele><time>2017-05-28T11:27:48Z</time></trkpt>
<trkpt lat="46.27547" lon="7.29822"><ele>1538.8</ele><time>2017-05-28T11:27:51Z</time></trkpt>
<trkpt lat="46.27536" lon="7.29798"><ele>1535.4</ele><time>2017-05-28T11:27:54Z</time></trkpt>
<trkpt lat="46.27532" lon="7.29789"><ele>1534.6</ele><time>2017-05-28T11:27:55Z</time></trkpt>
<trkpt lat="46.27523" lon="7.29774"><ele>1533.8</ele><time>2017-05-28T11:27:57Z</time></trkpt>
<trkpt lat="46.27505" lon="7.29758"><ele>1531.4</ele><time>2017-05-28T11:28:00Z</time></trkpt>
<trkpt lat="46.27484" lon="7.2976"><ele>1528.6</ele><time>2017-05-28T11:28:03Z</time></trkpt>
<trkpt lat="46.27476" lon="7.29763"><ele>1527.6</ele><time>2017-05-28T11:28:04Z</time></trkpt>
<trkpt lat="46.2747" lon="7.29766"><ele>1527</ele><time>2017-05-28T11:28:05Z</time></trkpt>
<trkpt lat="46.27453" lon="7.29777"><ele>1524.4</ele><time>2017-05-28T11:28:08Z</time></trkpt>
<trkpt lat="46.27442" lon="7.29777"><ele>1523.8</ele><time>2017-05-28T11:28:10Z</time></trkpt>
<trkpt lat="46.2742" lon="7.29762"><ele>1522</ele><time>2017-05-28T11:28:14Z</time></trkpt>
<trkpt lat="46.27403" lon="7.29747"><ele>1519.6</ele><time>2017-05-28T11:28:17Z</time></trkpt>
<trkpt lat="46.27397" lon="7.29746"><ele>1519.4</ele><time>2017-05-28T11:28:18Z</time></trkpt>
<trkpt lat="46.27391" lon="7.29742"><ele>1518.6</ele><time>2017-05-28T11:28:19Z</time></trkpt>
<trkpt lat="46.2738" lon="7.2972"><ele>1516.2</ele><time>2017-05-28T11:28:22Z</time></trkpt>
<trkpt lat="46.27373" lon="7.29704"><ele>1514.8</ele><time>2017-05-28T11:28:24Z</time></trkpt>
<trkpt lat="46.27355" lon="7.2969"><ele>1512.4</ele><time>2017-05-28T11:28:27Z</time></trkpt>
<trkpt lat="46.27335" lon="7.29697"><ele>1510</ele><time>2017-05-28T11:28:30Z</time></trkpt>
<trkpt lat="46.27328" lon="7.29701"><ele>1509.4</ele><time>2017-05-28T11:28:31Z</time></trkpt>
<trkpt lat="46.27322" lon="7.29706"><ele>1508.6</ele><time>2017-05-28T11:28:32Z</time></trkpt>
<trkpt lat="46.27309" lon="7.29713"><ele>1506.8</ele><time>2017-05-28T11:28:34Z</time></trkpt>
<trkpt lat="46.27289" lon="7.29718"><ele>1503.2</ele><time>2017-05-28T11:28:37Z</time></trkpt>
<trkpt lat="46.27276" lon="7.29719"><ele>1501.2</ele><time>2017-05-28T11:28:39Z</time></trkpt>
<trkpt lat="46.27269" lon="7.29718"><ele>1500.2</ele><time>2017-05-28T11:28:40Z</time></trkpt>
<trkpt lat="46.27254" lon="7.29716"><ele>1498.4</ele><time>2017-05-28T11:28:42Z</time></trkpt>
<trkpt lat="46.27234" lon="7.29717"><ele>1496.4</ele><time>2017-05-28T11:28:45Z</time></trkpt>
<trkpt lat="46.27212" lon="7.29716"><ele>1495.2</ele><time>2017-05-28T11:28:48Z</time></trkpt>
<trkpt lat="46.27199" lon="7.29715"><ele>1495.6</ele><time>2017-05-28T11:28:50Z</time></trkpt>
<trkpt lat="46.27181" lon="7.29696"><ele>1495.4</ele><time>2017-05-28T11:28:54Z</time></trkpt>
<trkpt lat="46.27178" lon="7.2969"><ele>1495</ele><time>2017-05-28T11:28:55Z</time></trkpt>
<trkpt lat="46.27166" lon="7.29665"><ele>1493.8</ele><time>2017-05-28T11:28:59Z</time></trkpt>
<trkpt lat="46.27152" lon="7.29638"><ele>1491.8</ele><time>2017-05-28T11:29:03Z</time></trkpt>
<trkpt lat="46.2714" lon="7.29615"><ele>1489.2</ele><time>2017-05-28T11:29:06Z</time></trkpt>
<trkpt lat="46.27135" lon="7.29607"><ele>1488.2</ele><time>2017-05-28T11:29:07Z</time></trkpt>
<trkpt lat="46.27114" lon="7.29594"><ele>1485</ele><time>2017-05-28T11:29:10Z</time></trkpt>
<trkpt lat="46.27099" lon="7.29596"><ele>1483.6</ele><time>2017-05-28T11:29:12Z</time></trkpt>
<trkpt lat="46.27091" lon="7.29596"><ele>1482.6</ele><time>2017-05-28T11:29:13Z</time></trkpt>
<trkpt lat="46.27067" lon="7.29588"><ele>1480.2</ele><time>2017-05-28T11:29:16Z</time></trkpt>
<trkpt lat="46.2705" lon="7.2958"><ele>1478.4</ele><time>2017-05-28T11:29:18Z</time></trkpt>
<trkpt lat="46.27033" lon="7.2957"><ele>1476.8</ele><time>2017-05-28T11:29:20Z</time></trkpt>
<trkpt lat="46.27016" lon="7.29559"><ele>1475</ele><time>2017-05-28T11:29:22Z</time></trkpt>
<trkpt lat="46.26992" lon="7.29546"><ele>1472.6</ele><time>2017-05-28T11:29:25Z</time></trkpt>
<trkpt lat="46.26978" lon="7.29534"><ele>1470.8</ele><time>2017-05-28T11:29:27Z</time></trkpt>
<trkpt lat="46.26959" lon="7.2951"><ele>1468.2</ele><time>2017-05-28T11:29:30Z</time></trkpt>
<trkpt lat="46.26941" lon="7.29498"><ele>1466</ele><time>2017-05-28T11:29:33Z</time></trkpt>
<trkpt lat="46.26937" lon="7.29495"><ele>1465.2</ele><time>2017-05-28T11:29:34Z</time></trkpt>
<trkpt lat="46.26922" lon="7.29468"><ele>1460.4</ele><time>2017-05-28T11:29:38Z</time></trkpt>
<trkpt lat="46.26918" lon="7.2946"><ele>1459.2</ele><time>2017-05-28T11:29:39Z</time></trkpt>
<trkpt lat="46.26897" lon="7.2945"><ele>1455.8</ele><time>2017-05-28T11:29:42Z</time></trkpt>
<trkpt lat="46.2689" lon="7.2945"><ele>1454.6</ele><time>2017-05-28T11:29:43Z</time></trkpt>
<trkpt lat="46.26883" lon="7.29449"><ele>1453.6</ele><time>2017-05-28T11:29:44Z</time></trkpt>
<trkpt lat="46.26869" lon="7.2943"><ele>1449.4</ele><time>2017-05-28T11:29:47Z</time></trkpt>
<trkpt lat="46.26854" lon="7.29396"><ele>1444.4</ele><time>2017-05-28T11:29:50Z</time></trkpt>
<trkpt lat="46.26834" lon="7.29383"><ele>1440.8</ele><time>2017-05-28T11:29:52Z</time></trkpt>
<trkpt lat="46.26811" lon="7.29375"><ele>1437.4</ele><time>2017-05-28T11:29:54Z</time></trkpt>
<trkpt lat="46.26799" lon="7.29371"><ele>1436.2</ele><time>2017-05-28T11:29:55Z</time></trkpt>
<trkpt lat="46.2678" lon="7.2936"><ele>1433.4</ele><time>2017-05-28T11:29:57Z</time></trkpt>
<trkpt lat="46.26762" lon="7.29352"><ele>1431.4</ele><time>2017-05-28T11:29:59Z</time></trkpt>
<trkpt lat="46.26747" lon="7.29344"><ele>1430.2</ele><time>2017-05-28T11:30:01Z</time></trkpt>
<trkpt lat="46.26727" lon="7.2932"><ele>1427.4</ele><time>2017-05-28T11:30:04Z</time></trkpt>
<trkpt lat="46.26722" lon="7.2931"><ele>1426.6</ele><time>2017-05-28T11:30:05Z</time></trkpt>
<trkpt lat="46.26712" lon="7.29292"><ele>1425.6</ele><time>2017-05-28T11:30:11Z</time></trkpt>
<trkpt lat="46.26698" lon="7.29268"><ele>1424.4</ele><time>2017-05-28T11:30:19Z</time></trkpt>
<trkpt lat="46.26691" lon="7.29254"><ele>1423.8</ele><time>2017-05-28T11:30:21Z</time></trkpt>
<trkpt lat="46.26677" lon="7.29231"><ele>1422.4</ele><time>2017-05-28T11:30:24Z</time></trkpt>
<trkpt lat="46.26661" lon="7.29203"><ele>1420</ele><time>2017-05-28T11:30:27Z</time></trkpt>
<trkpt lat="46.26647" lon="7.29184"><ele>1418.2</ele><time>2017-05-28T11:30:29Z</time></trkpt>
<trkpt lat="46.26632" lon="7.29164"><ele>1415</ele><time>2017-05-28T11:30:31Z</time></trkpt>
<trkpt lat="46.26616" lon="7.29144"><ele>1411.6</ele><time>2017-05-28T11:30:33Z</time></trkpt>
<trkpt lat="46.26607" lon="7.29134"><ele>1410.2</ele><time>2017-05-28T11:30:34Z</time></trkpt>
<trkpt lat="46.26598" lon="7.29125"><ele>1408.8</ele><time>2017-05-28T11:30:35Z</time></trkpt>
<trkpt lat="46.2658" lon="7.29108"><ele>1406.6</ele><time>2017-05-28T11:30:37Z</time></trkpt>
<trkpt lat="46.26562" lon="7.2909"><ele>1404.4</ele><time>2017-05-28T11:30:39Z</time></trkpt>
<trkpt lat="46.26542" lon="7.29076"><ele>1402.2</ele><time>2017-05-28T11:30:41Z</time></trkpt>
<trkpt lat="46.26521" lon="7.29062"><ele>1400.2</ele><time>2017-05-28T11:30:43Z</time></trkpt>
<trkpt lat="46.26511" lon="7.29054"><ele>1399.6</ele><time>2017-05-28T11:30:44Z</time></trkpt>
<trkpt lat="46.26493" lon="7.29037"><ele>1398.4</ele><time>2017-05-28T11:30:46Z</time></trkpt>
<trkpt lat="46.26478" lon="7.29019"><ele>1397.6</ele><time>2017-05-28T11:30:48Z</time></trkpt>
<trkpt lat="46.26466" lon="7.29002"><ele>1396.6</ele><time>2017-05-28T11:30:50Z</time></trkpt>
<trkpt lat="46.26456" lon="7.28974"><ele>1395.8</ele><time>2017-05-28T11:30:53Z</time></trkpt>
<trkpt lat="46.26454" lon="7.28954"><ele>1395.2</ele><time>2017-05-28T11:30:55Z</time></trkpt>
<trkpt lat="46.26453" lon="7.28944"><ele>1394.8</ele><time>2017-05-28T11:30:56Z</time></trkpt>
<trkpt lat="46.26437" lon="7.28921"><ele>1392.8</ele><time>2017-05-28T11:30:59Z</time></trkpt>
<trkpt lat="46.2643" lon="7.28915"><ele>1391.4</ele><time>2017-05-28T11:31:00Z</time></trkpt>
<trkpt lat="46.26415" lon="7.28898"><ele>1389.4</ele><time>2017-05-28T11:31:02Z</time></trkpt>
<trkpt lat="46.26403" lon="7.28876"><ele>1386</ele><time>2017-05-28T11:31:04Z</time></trkpt>
<trkpt lat="46.26396" lon="7.28864"><ele>1384.8</ele><time>2017-05-28T11:31:05Z</time></trkpt>
<trkpt lat="46.2638" lon="7.28845"><ele>1382.4</ele><time>2017-05-28T11:31:07Z</time></trkpt>
<trkpt lat="46.26364" lon="7.28825"><ele>1380.6</ele><time>2017-05-28T11:31:09Z</time></trkpt>
<trkpt lat="46.26351" lon="7.28799"><ele>1378.2</ele><time>2017-05-28T11:31:11Z</time></trkpt>
<trkpt lat="46.26335" lon="7.28775"><ele>1376.2</ele><time>2017-05-28T11:31:13Z</time></trkpt>
<trkpt lat="46.26316" lon="7.28757"><ele>1374.6</ele><time>2017-05-28T11:31:15Z</time></trkpt>
<trkpt lat="46.26306" lon="7.28749"><ele>1373.4</ele><time>2017-05-28T11:31:16Z</time></trkpt>
<trkpt lat="46.26286" lon="7.28735"><ele>1372.4</ele><time>2017-05-28T11:31:18Z</time></trkpt>
<trkpt lat="46.26277" lon="7.28731"><ele>1372.2</ele><time>2017-05-28T11:31:19Z</time></trkpt>
<trkpt lat="46.26268" lon="7.28727"><ele>1372</ele><time>2017-05-28T11:31:20Z</time></trkpt>
<trkpt lat="46.2626" lon="7.28723"><ele>1372.2</ele><time>2017-05-28T11:31:21Z</time></trkpt>
<trkpt lat="46.2624" lon="7.287"><ele>1371.6</ele><time>2017-05-28T11:31:24Z</time></trkpt>
<trkpt lat="46.26219" lon="7.28683"><ele>1371</ele><time>2017-05-28T11:31:27Z</time></trkpt>
<trkpt lat="46.26211" lon="7.28679"><ele>1370.8</ele><time>2017-05-28T11:31:28Z</time></trkpt>
<trkpt lat="46.26188" lon="7.28668"><ele>1370</ele><time>2017-05-28T11:31:31Z</time></trkpt>
<trkpt lat="46.26166" lon="7.28653"><ele>1368.2</ele><time>2017-05-28T11:31:34Z</time></trkpt>
<trkpt lat="46.2615" lon="7.28646"><ele>1369</ele><time>2017-05-28T11:31:36Z</time></trkpt>
<trkpt lat="46.26143" lon="7.28642"><ele>1369.2</ele><time>2017-05-28T11:31:37Z</time></trkpt>
<trkpt lat="46.26124" lon="7.28629"><ele>1370.2</ele><time>2017-05-28T11:31:40Z</time></trkpt>
<trkpt lat="46.26105" lon="7.28616"><ele>1371.2</ele><time>2017-05-28T11:31:44Z</time></trkpt>
<trkpt lat="46.26101" lon="7.28614"><ele>1371.4</ele><time>2017-05-28T11:31:45Z</time></trkpt>
<trkpt lat="46.26082" lon="7.28613"><ele>1372</ele><time>2017-05-28T11:31:50Z</time></trkpt>
<trkpt lat="46.26064" lon="7.28615"><ele>1372.2</ele><time>2017-05-28T11:31:55Z</time></trkpt>
<trkpt lat="46.26045" lon="7.28612"><ele>1372.2</ele><time>2017-05-28T11:32:00Z</time></trkpt>
<trkpt lat="46.26031" lon="7.28605"><ele>1372.8</ele><time>2017-05-28T11:32:04Z</time></trkpt>
<trkpt lat="46.26017" lon="7.28594"><ele>1372.8</ele><time>2017-05-28T11:32:08Z</time></trkpt>
<trkpt lat="46.26011" lon="7.28589"><ele>1372.6</ele><time>2017-05-28T11:32:10Z</time></trkpt>
<trkpt lat="46.25994" lon="7.28575"><ele>1372.6</ele><time>2017-05-28T11:32:15Z</time></trkpt>
<trkpt lat="46.25987" lon="7.2857"><ele>1372.6</ele><time>2017-05-28T11:32:17Z</time></trkpt>
<trkpt lat="46.2598" lon="7.28565"><ele>1372.6</ele><time>2017-05-28T11:32:19Z</time></trkpt>
<trkpt lat="46.2597" lon="7.28559"><ele>1372.4</ele><time>2017-05-28T11:32:22Z</time></trkpt>
<trkpt lat="46.25963" lon="7.28556"><ele>1372.4</ele><time>2017-05-28T11:32:24Z</time></trkpt>
<trkpt lat="46.25956" lon="7.28553"><ele>1372.6</ele><time>2017-05-28T11:32:26Z</time></trkpt>
<trkpt lat="46.25938" lon="7.28549"><ele>1372.6</ele><time>2017-05-28T11:32:31Z</time></trkpt>
<trkpt lat="46.25923" lon="7.28545"><ele>1372.6</ele><time>2017-05-28T11:32:35Z</time></trkpt>
<trkpt lat="46.25906" lon="7.28536"><ele>1372.6</ele><time>2017-05-28T11:32:40Z</time></trkpt>
<trkpt lat="46.25892" lon="7.28517"><ele>1373.2</ele><time>2017-05-28T11:32:45Z</time></trkpt>
<trkpt lat="46.25879" lon="7.28498"><ele>1373.8</ele><time>2017-05-28T11:32:50Z</time></trkpt>
<trkpt lat="46.25872" lon="7.28487"><ele>1374.2</ele><time>2017-05-28T11:32:53Z</time></trkpt>
<trkpt lat="46.25863" lon="7.28474"><ele>1374.8</ele><time>2017-05-28T11:32:57Z</time></trkpt>
<trkpt lat="46.25847" lon="7.28458"><ele>1375.4</ele><time>2017-05-28T11:33:03Z</time></trkpt>
<trkpt lat="46.25831" lon="7.28441"><ele>1376</ele><time>2017-05-28T11:33:10Z</time></trkpt>
<trkpt lat="46.25824" lon="7.28431"><ele>1376.4</ele><time>2017-05-28T11:33:13Z</time></trkpt>
<trkpt lat="46.2582" lon="7.28424"><ele>1376.6</ele><time>2017-05-28T11:33:15Z</time></trkpt>
<trkpt lat="46.25814" lon="7.28413"><ele>1377</ele><time>2017-05-28T11:33:18Z</time></trkpt>
<trkpt lat="46.25801" lon="7.28393"><ele>1377.4</ele><time>2017-05-28T11:33:24Z</time></trkpt>
<trkpt lat="46.25784" lon="7.28381"><ele>1376.4</ele><time>2017-05-28T11:33:30Z</time></trkpt>
<trkpt lat="46.25774" lon="7.28379"><ele>1376.8</ele><time>2017-05-28T11:33:33Z</time></trkpt>
<trkpt lat="46.25757" lon="7.28368"><ele>1377.8</ele><time>2017-05-28T11:33:41Z</time></trkpt>
<trkpt lat="46.25747" lon="7.28358"><ele>1378.6</ele><time>2017-05-28T11:33:47Z</time></trkpt>
<trkpt lat="46.25734" lon="7.28345"><ele>1380.2</ele><time>2017-05-28T11:33:55Z</time></trkpt>
<trkpt lat="46.25724" lon="7.28339"><ele>1382.2</ele><time>2017-05-28T11:34:01Z</time></trkpt>
<trkpt lat="46.25699" lon="7.28346"><ele>1385.8</ele><time>2017-05-28T11:34:16Z</time></trkpt>
<trkpt lat="46.25689" lon="7.28345"><ele>1386.4</ele><time>2017-05-28T11:34:22Z</time></trkpt>
<trkpt lat="46.25684" lon="7.28344"><ele>1386.8</ele><time>2017-05-28T11:34:25Z</time></trkpt>
<trkpt lat="46.25666" lon="7.28332"><ele>1387.6</ele><time>2017-05-28T11:34:36Z</time></trkpt>
<trkpt lat="46.2565" lon="7.28318"><ele>1389.4</ele><time>2017-05-28T11:34:47Z</time></trkpt>
<trkpt lat="46.25634" lon="7.28304"><ele>1390.4</ele><time>2017-05-28T11:34:57Z</time></trkpt>
<trkpt lat="46.2562" lon="7.28287"><ele>1391.6</ele><time>2017-05-28T11:35:08Z</time></trkpt>
<trkpt lat="46.25608" lon="7.28269"><ele>1393.2</ele><time>2017-05-28T11:35:19Z</time></trkpt>
<trkpt lat="46.25606" lon="7.28231"><ele>1395.2</ele><time>2017-05-28T11:35:35Z</time></trkpt>
<trkpt lat="46.25602" lon="7.28211"><ele>1396.8</ele><time>2017-05-28T11:35:44Z</time></trkpt>
<trkpt lat="46.256" lon="7.28204"><ele>1397.4</ele><time>2017-05-28T11:35:47Z</time></trkpt>
<trkpt lat="46.25595" lon="7.28191"><ele>1399.2</ele><time>2017-05-28T11:35:54Z</time></trkpt>
<trkpt lat="46.25586" lon="7.28178"><ele>1401.6</ele><time>2017-05-28T11:36:04Z</time></trkpt>
<trkpt lat="46.25577" lon="7.28159"><ele>1403.2</ele><time>2017-05-28T11:36:14Z</time></trkpt>
<trkpt lat="46.25573" lon="7.28149"><ele>1404.2</ele><time>2017-05-28T11:36:19Z</time></trkpt>
<trkpt lat="46.25563" lon="7.28125"><ele>1406.4</ele><time>2017-05-28T11:36:32Z</time></trkpt>
<trkpt lat="46.25553" lon="7.28093"><ele>1410</ele><time>2017-05-28T11:36:48Z</time></trkpt>
<trkpt lat="46.25548" lon="7.28072"><ele>1411.6</ele><time>2017-05-28T11:36:57Z</time></trkpt>
<trkpt lat="46.25546" lon="7.28044"><ele>1413.4</ele><time>2017-05-28T11:37:09Z</time></trkpt>
<trkpt lat="46.25543" lon="7.28029"><ele>1414.6</ele><time>2017-05-28T11:37:16Z</time></trkpt>
<trkpt lat="46.25539" lon="7.28023"><ele>1415.2</ele><time>2017-05-28T11:37:20Z</time></trkpt>
<trkpt lat="46.25527" lon="7.28003"><ele>1417</ele><time>2017-05-28T11:37:32Z</time></trkpt>
<trkpt lat="46.25524" lon="7.27997"><ele>1417.6</ele><time>2017-05-28T11:37:35Z</time></trkpt>
<trkpt lat="46.25506" lon="7.27973"><ele>1422.8</ele><time>2017-05-28T11:37:50Z</time></trkpt>
<trkpt lat="46.25492" lon="7.27954"><ele>1425.8</ele><time>2017-05-28T11:38:02Z</time></trkpt>
<trkpt lat="46.25475" lon="7.27943"><ele>1428.2</ele><time>2017-05-28T11:38:15Z</time></trkpt>
<trkpt lat="46.25474" lon="7.27942"><ele>1428.2</ele><time>2017-05-28T11:38:16Z</time></trkpt>
<trkpt lat="46.25465" lon="7.27917"><ele>1428.8</ele><time>2017-05-28T11:38:27Z</time></trkpt>
<trkpt lat="46.25465" lon="7.2789"><ele>1430</ele><time>2017-05-28T11:38:38Z</time></trkpt>
<trkpt lat="46.25465" lon="7.27883"><ele>1430</ele><time>2017-05-28T11:38:41Z</time></trkpt>
<trkpt lat="46.25463" lon="7.27874"><ele>1430.2</ele><time>2017-05-28T11:38:45Z</time></trkpt>
<trkpt lat="46.25454" lon="7.27857"><ele>1431.2</ele><time>2017-05-28T11:38:55Z</time></trkpt>
<trkpt lat="46.25448" lon="7.27846"><ele>1433</ele><time>2017-05-28T11:39:02Z</time></trkpt>
<trkpt lat="46.2544" lon="7.27833"><ele>1435.8</ele><time>2017-05-28T11:39:11Z</time></trkpt>
<trkpt lat="46.25429" lon="7.27812"><ele>1436.6</ele><time>2017-05-28T11:39:23Z</time></trkpt>
<trkpt lat="46.25418" lon="7.27789"><ele>1437.6</ele><time>2017-05-28T11:39:35Z</time></trkpt>
<trkpt lat="46.25405" lon="7.2777"><ele>1438</ele><time>2017-05-28T11:39:48Z</time></trkpt>
<trkpt lat="46.25389" lon="7.27764"><ele>1438.4</ele><time>2017-05-28T11:39:59Z</time></trkpt>
<trkpt lat="46.25383" lon="7.27761"><ele>1438</ele><time>2017-05-28T11:40:03Z</time></trkpt>
<trkpt lat="46.25382" lon="7.2776"><ele>1438</ele><time>2017-05-28T11:40:04Z</time></trkpt>
<trkpt lat="46.2538" lon="7.27759"><ele>1438</ele><time>2017-05-28T11:40:05Z</time></trkpt>
<trkpt lat="46.2537" lon="7.27752"><ele>1438.4</ele><time>2017-05-28T11:40:12Z</time></trkpt>
<trkpt lat="46.25363" lon="7.27746"><ele>1438.2</ele><time>2017-05-28T11:40:17Z</time></trkpt>
<trkpt lat="46.25351" lon="7.2774"><ele>1438.6</ele><time>2017-05-28T11:40:25Z</time></trkpt>
<trkpt lat="46.25344" lon="7.27738"><ele>1438.8</ele><time>2017-05-28T11:40:30Z</time></trkpt>
<trkpt lat="46.25341" lon="7.27737"><ele>1439</ele><time>2017-05-28T11:40:32Z</time></trkpt>
<trkpt lat="46.25338" lon="7.27737"><ele>1439</ele><time>2017-05-28T11:40:34Z</time></trkpt>
<trkpt lat="46.25337" lon="7.27737"><ele>1439.2</ele><time>2017-05-28T11:40:35Z</time></trkpt>
<trkpt lat="46.25335" lon="7.27737"><ele>1439.4</ele><time>2017-05-28T11:40:36Z</time></trkpt>
<trkpt lat="46.25334" lon="7.27737"><ele>1439.4</ele><time>2017-05-28T11:40:37Z</time></trkpt>
<trkpt lat="46.25326" lon="7.27734"><ele>1440.2</ele><time>2017-05-28T11:40:42Z</time></trkpt>
<trkpt lat="46.25322" lon="7.27731"><ele>1440.6</ele><time>2017-05-28T11:40:45Z</time></trkpt>
<trkpt lat="46.25306" lon="7.27716"><ele>1442.4</ele><time>2017-05-28T11:40:57Z</time></trkpt>
<trkpt lat="46.25288" lon="7.27694"><ele>1444.8</ele><time>2017-05-28T11:41:13Z</time></trkpt>
<trkpt lat="46.2527" lon="7.27691"><ele>1447.2</ele><time>2017-05-28T11:41:26Z</time></trkpt>
<trkpt lat="46.25261" lon="7.27697"><ele>1449.8</ele><time>2017-05-28T11:41:34Z</time></trkpt>
<trkpt lat="46.25249" lon="7.27717"><ele>1453.8</ele><time>2017-05-28T11:41:46Z</time></trkpt>
<trkpt lat="46.25229" lon="7.27716"><ele>1453</ele><time>2017-05-28T11:41:55Z</time></trkpt>
<trkpt lat="46.25217" lon="7.27696"><ele>1452.8</ele><time>2017-05-28T11:42:05Z</time></trkpt>
<trkpt lat="46.25214" lon="7.27681"><ele>1453.2</ele><time>2017-05-28T11:42:12Z</time></trkpt>
<trkpt lat="46.25205" lon="7.27653"><ele>1453.6</ele><time>2017-05-28T11:42:27Z</time></trkpt>
<trkpt lat="46.25192" lon="7.27635"><ele>1454.6</ele><time>2017-05-28T11:42:40Z</time></trkpt>
<trkpt lat="46.25178" lon="7.27628"><ele>1456.2</ele><time>2017-05-28T11:42:52Z</time></trkpt>
<trkpt lat="46.25173" lon="7.27626"><ele>1456.4</ele><time>2017-05-28T11:42:56Z</time></trkpt>
<trkpt lat="46.25154" lon="7.27621"><ele>1458.4</ele><time>2017-05-28T11:43:10Z</time></trkpt>
<trkpt lat="46.25135" lon="7.27609"><ele>1460.6</ele><time>2017-05-28T11:43:25Z</time></trkpt>
<trkpt lat="46.25123" lon="7.27589"><ele>1462.6</ele><time>2017-05-28T11:43:38Z</time></trkpt>
<trkpt lat="46.25116" lon="7.27566"><ele>1464.6</ele><time>2017-05-28T11:43:50Z</time></trkpt>
<trkpt lat="46.25113" lon="7.27549"><ele>1465.8</ele><time>2017-05-28T11:43:59Z</time></trkpt>
<trkpt lat="46.25111" lon="7.27536"><ele>1467</ele><time>2017-05-28T11:44:06Z</time></trkpt>
<trkpt lat="46.2511" lon="7.27532"><ele>1467.4</ele><time>2017-05-28T11:44:08Z</time></trkpt>
<trkpt lat="46.25107" lon="7.27513"><ele>1469.4</ele><time>2017-05-28T11:44:19Z</time></trkpt>
<trkpt lat="46.25105" lon="7.27499"><ele>1471.4</ele><time>2017-05-28T11:44:29Z</time></trkpt>
<trkpt lat="46.25095" lon="7.2748"><ele>1473</ele><time>2017-05-28T11:44:41Z</time></trkpt>
<trkpt lat="46.25092" lon="7.27464"><ele>1474.6</ele><time>2017-05-28T11:44:51Z</time></trkpt>
<trkpt lat="46.25087" lon="7.27457"><ele>1475.4</ele><time>2017-05-28T11:44:56Z</time></trkpt>
<trkpt lat="46.25085" lon="7.27451"><ele>1476.2</ele><time>2017-05-28T11:45:00Z</time></trkpt>
<trkpt lat="46.25081" lon="7.27441"><ele>1478</ele><time>2017-05-28T11:45:06Z</time></trkpt>
<trkpt lat="46.25076" lon="7.27415"><ele>1481</ele><time>2017-05-28T11:45:20Z</time></trkpt>
<trkpt lat="46.25087" lon="7.27416"><ele>1481.2</ele><time>2017-05-28T11:45:28Z</time></trkpt>
<trkpt lat="46.25104" lon="7.27428"><ele>1480.4</ele><time>2017-05-28T11:45:40Z</time></trkpt>
<trkpt lat="46.25113" lon="7.27441"><ele>1481.4</ele><time>2017-05-28T11:45:52Z</time></trkpt>
<trkpt lat="46.25126" lon="7.27457"><ele>1482.6</ele><time>2017-05-28T11:46:06Z</time></trkpt>
<trkpt lat="46.25131" lon="7.27462"><ele>1482.8</ele><time>2017-05-28T11:46:11Z</time></trkpt>
<trkpt lat="46.25136" lon="7.27466"><ele>1482.6</ele><time>2017-05-28T11:46:15Z</time></trkpt>
<trkpt lat="46.25141" lon="7.27472"><ele>1482.6</ele><time>2017-05-28T11:46:20Z</time></trkpt>
<trkpt lat="46.25153" lon="7.27483"><ele>1483</ele><time>2017-05-28T11:46:30Z</time></trkpt>
<trkpt lat="46.2517" lon="7.27497"><ele>1483.6</ele><time>2017-05-28T11:46:42Z</time></trkpt>
<trkpt lat="46.25173" lon="7.27502"><ele>1484.2</ele><time>2017-05-28T11:46:45Z</time></trkpt>
<trkpt lat="46.25183" lon="7.27517"><ele>1484.4</ele><time>2017-05-28T11:46:55Z</time></trkpt>
<trkpt lat="46.25197" lon="7.27535"><ele>1486</ele><time>2017-05-28T11:47:07Z</time></trkpt>
<trkpt lat="46.25215" lon="7.27542"><ele>1486.6</ele><time>2017-05-28T11:47:20Z</time></trkpt>
<trkpt lat="46.25221" lon="7.27542"><ele>1487.2</ele><time>2017-05-28T11:47:24Z</time></trkpt>
<trkpt lat="46.25239" lon="7.27532"><ele>1488.8</ele><time>2017-05-28T11:47:36Z</time></trkpt>
<trkpt lat="46.25255" lon="7.27524"><ele>1490.6</ele><time>2017-05-28T11:47:46Z</time></trkpt>
<trkpt lat="46.25271" lon="7.27515"><ele>1491.6</ele><time>2017-05-28T11:47:57Z</time></trkpt>
<trkpt lat="46.2529" lon="7.27511"><ele>1493</ele><time>2017-05-28T11:48:09Z</time></trkpt>
<trkpt lat="46.25309" lon="7.27509"><ele>1494.4</ele><time>2017-05-28T11:48:20Z</time></trkpt>
<trkpt lat="46.25322" lon="7.27511"><ele>1496.4</ele><time>2017-05-28T11:48:28Z</time></trkpt>
<trkpt lat="46.2534" lon="7.27514"><ele>1501.6</ele><time>2017-05-28T11:48:40Z</time></trkpt>
<trkpt lat="46.25364" lon="7.27529"><ele>1509</ele><time>2017-05-28T11:48:58Z</time></trkpt>
<trkpt lat="46.25377" lon="7.27537"><ele>1510.2</ele><time>2017-05-28T11:49:09Z</time></trkpt>
<trkpt lat="46.25394" lon="7.27548"><ele>1513.8</ele><time>2017-05-28T11:49:24Z</time></trkpt>
<trkpt lat="46.25412" lon="7.27556"><ele>1515.8</ele><time>2017-05-28T11:49:38Z</time></trkpt>
<trkpt lat="46.25417" lon="7.27557"><ele>1516.4</ele><time>2017-05-28T11:49:42Z</time></trkpt>
<trkpt lat="46.25432" lon="7.27566"><ele>1520.8</ele><time>2017-05-28T11:49:58Z</time></trkpt>
<trkpt lat="46.25445" lon="7.27578"><ele>1523.8</ele><time>2017-05-28T11:50:11Z</time></trkpt>
<trkpt lat="46.25455" lon="7.27586"><ele>1524.4</ele><time>2017-05-28T11:50:20Z</time></trkpt>
<trkpt lat="46.25459" lon="7.2759"><ele>1524.2</ele><time>2017-05-28T11:50:23Z</time></trkpt>
<trkpt lat="46.25466" lon="7.27598"><ele>1523.8</ele><time>2017-05-28T11:50:28Z</time></trkpt>
<trkpt lat="46.25478" lon="7.27614"><ele>1526.4</ele><time>2017-05-28T11:50:43Z</time></trkpt>
<trkpt lat="46.25485" lon="7.27622"><ele>1528</ele><time>2017-05-28T11:50:51Z</time></trkpt>
<trkpt lat="46.25494" lon="7.2763"><ele>1529</ele><time>2017-05-28T11:50:59Z</time></trkpt>
<trkpt lat="46.25499" lon="7.27637"><ele>1529.4</ele><time>2017-05-28T11:51:04Z</time></trkpt>
<trkpt lat="46.25501" lon="7.27639"><ele>1529.2</ele><time>2017-05-28T11:51:06Z</time></trkpt>
<trkpt lat="46.25503" lon="7.27642"><ele>1529.2</ele><time>2017-05-28T11:51:08Z</time></trkpt>
<trkpt lat="46.25511" lon="7.27649"><ele>1529.8</ele><time>2017-05-28T11:51:15Z</time></trkpt>
<trkpt lat="46.25518" lon="7.27654"><ele>1529.6</ele><time>2017-05-28T11:51:21Z</time></trkpt>
<trkpt lat="46.25522" lon="7.27659"><ele>1529.8</ele><time>2017-05-28T11:51:25Z</time></trkpt>
<trkpt lat="46.25527" lon="7.27665"><ele>1530.6</ele><time>2017-05-28T11:51:31Z</time></trkpt>
<trkpt lat="46.25543" lon="7.27679"><ele>1532.2</ele><time>2017-05-28T11:51:44Z</time></trkpt>
<trkpt lat="46.25562" lon="7.2768"><ele>1534.8</ele><time>2017-05-28T11:51:57Z</time></trkpt>
<trkpt lat="46.25587" lon="7.27682"><ele>1534.2</ele><time>2017-05-28T11:52:15Z</time></trkpt>
<trkpt lat="46.25606" lon="7.27683"><ele>1532.6</ele><time>2017-05-28T11:52:28Z</time></trkpt>
<trkpt lat="46.25611" lon="7.27684"><ele>1532.4</ele><time>2017-05-28T11:52:31Z</time></trkpt>
<trkpt lat="46.25628" lon="7.27681"><ele>1532.6</ele><time>2017-05-28T11:52:43Z</time></trkpt>
<trkpt lat="46.2564" lon="7.2768"><ele>1532.4</ele><time>2017-05-28T11:52:52Z</time></trkpt>
<trkpt lat="46.25658" lon="7.27681"><ele>1531.6</ele><time>2017-05-28T11:53:05Z</time></trkpt>
<trkpt lat="46.25674" lon="7.27675"><ele>1531.8</ele><time>2017-05-28T11:53:19Z</time></trkpt>
<trkpt lat="46.25676" lon="7.27673"><ele>1532.2</ele><time>2017-05-28T11:53:21Z</time></trkpt>
<trkpt lat="46.25682" lon="7.27672"><ele>1533</ele><time>2017-05-28T11:53:25Z</time></trkpt>
<trkpt lat="46.25705" lon="7.2766"><ele>1537.4</ele><time>2017-05-28T11:53:45Z</time></trkpt>
<trkpt lat="46.25713" lon="7.2765"><ele>1539.2</ele><time>2017-05-28T11:53:53Z</time></trkpt>
<trkpt lat="46.25722" lon="7.27646"><ele>1541.2</ele><time>2017-05-28T11:54:00Z</time></trkpt>
<trkpt lat="46.25741" lon="7.27647"><ele>1543.2</ele><time>2017-05-28T11:54:14Z</time></trkpt>
<trkpt lat="46.25765" lon="7.27659"><ele>1543.4</ele><time>2017-05-28T11:54:32Z</time></trkpt>
<trkpt lat="46.2578" lon="7.27687"><ele>1545.8</ele><time>2017-05-28T11:54:51Z</time></trkpt>
<trkpt lat="46.25783" lon="7.27691"><ele>1546.4</ele><time>2017-05-28T11:54:54Z</time></trkpt>
<trkpt lat="46.25793" lon="7.27712"><ele>1548.8</ele><time>2017-05-28T11:55:08Z</time></trkpt>
<trkpt lat="46.25795" lon="7.27714"><ele>1549.2</ele><time>2017-05-28T11:55:10Z</time></trkpt>
<trkpt lat="46.25803" lon="7.27727"><ele>1551.6</ele><time>2017-05-28T11:55:19Z</time></trkpt>
<trkpt lat="46.25805" lon="7.27733"><ele>1552.2</ele><time>2017-05-28T11:55:23Z</time></trkpt>
<trkpt lat="46.25815" lon="7.2775"><ele>1553.8</ele><time>2017-05-28T11:55:34Z</time></trkpt>
<trkpt lat="46.25824" lon="7.27766"><ele>1554.4</ele><time>2017-05-28T11:55:45Z</time></trkpt>
<trkpt lat="46.25836" lon="7.27784"><ele>1556</ele><time>2017-05-28T11:55:59Z</time></trkpt>
<trkpt lat="46.25855" lon="7.27787"><ele>1556.4</ele><time>2017-05-28T11:56:13Z</time></trkpt>
<trkpt lat="46.25873" lon="7.27795"><ele>1559.2</ele><time>2017-05-28T11:56:27Z</time></trkpt>
<trkpt lat="46.25878" lon="7.27796"><ele>1560</ele><time>2017-05-28T11:56:33Z</time></trkpt>
<trkpt lat="46.25877" lon="7.27792"><ele>1560</ele><time>2017-05-28T11:56:36Z</time></trkpt>
<trkpt lat="46.25879" lon="7.27794"><ele>1559.8</ele><time>2017-05-28T11:56:50Z</time></trkpt>
<trkpt lat="46.25877" lon="7.27795"><ele>1559.8</ele><time>2017-05-28T11:57:02Z</time></trkpt>
</trkseg></trk></gpx>